Flight Track Log - Related Links

Times and Time Zones

All times are in EDT time to prevent confusion due to time zone crossing. See the DAL268 flight status page for this flight to view local times or setup timezone preferences in your user account.

Time Position Orientation Groundspeed Altitude Reporting Facility
EDT Latitude Longitude Course Direction KTS MPH feet Rate Location/Type
Tue 12:19:58 AM 40.6260 -73.7770 261° West  Level FlightAware ADS-B
Tue 12:23:00 AM 40.5440 -73.4987 114° Southeast  Level FlightAware Approximate
Tue 12:24:45 AM 40.6240 -73.7760 180° South  Level FlightAware ADS-B
Tue 12:26:15 AM 40.6240 -73.7770 270° West 32 Level FlightAware ADS-B
Tue 12:37:00 AM 40.5369 -73.4773 114° Southeast  Level FlightAware Approximate
Tue 12:39:51 AM 40.6310 -73.7670 217° Southwest 74 85  Level FlightAware ADS-B
Tue 12:40:11 AM 40.6210 -73.7750 211° Southwest 150 173 698 Level FlightAware ADS-B
Tue 12:40:34 AM 40.6060 -73.7870 211° Southwest 171 197 500 1,750 Climbing FlightAware ADS-B
Tue 12:40:59 AM 40.5880 -73.7980 205° Southwest 174 200 1,400 1,946 Climbing FlightAware ADS-B
Tue 12:41:11 AM 40.5780 -73.8040 204° Southwest 188 216 1,700 1,125 Climbing FlightAware ADS-B
Tue 12:41:31 AM 40.5610 -73.8120 198° South 215 247 2,000 1,029 Climbing FlightAware ADS-B
Tue 12:41:46 AM 40.5460 -73.8160 191° South 238 274 2,300 857 Climbing FlightAware ADS-B
Tue 12:42:06 AM 40.5250 -73.8090 166° South 268 308 2,500 828 Climbing FlightAware ADS-B
Tue 12:42:15 AM 40.5160 -73.8010 146° Southeast 281 323 2,700 1,500 Climbing FlightAware ADS-B
Tue 12:42:26 AM 40.5050 -73.7870 136° Southeast 291 335 3,000 1,800 Climbing FlightAware ADS-B
Tue 12:42:35 AM 40.4970 -73.7720 125° Southeast 301 346 3,300 1,862 Climbing FlightAware ADS-B
Tue 12:42:55 AM 40.4850 -73.7400 116° Southeast 314 361 3,900 1,680 Climbing FlightAware ADS-B
Tue 12:43:00 AM 40.4840 -73.7360 108° East 317 365 4,000 2,100 Climbing FlightAware ADS-B
Tue 12:43:15 AM 40.4820 -73.7010 94° East 324 373 4,600 2,516 Climbing FlightAware ADS-B
Tue 12:43:31 AM 40.4880 -73.6720 75° East 324 373 5,300 2,667 Climbing FlightAware ADS-B
Tue 12:43:51 AM 40.4970 -73.6410 69° East 324 373 6,200 2,400 Climbing FlightAware ADS-B
Tue 12:44:16 AM 40.5100 -73.5930 70° East 328 377 7,100 2,357 Climbing FlightAware ADS-B
Tue 12:44:47 AM 40.5060 -73.5240 94° East 335 386 8,400 2,400 Climbing FlightAware ADS-B
Tue 12:45:11 AM 40.4940 -73.4770 109° East 340 391 9,300 2,270 Climbing FlightAware ADS-B
Tue 12:45:24 AM 40.4890 -73.4530 105° East 341 392 9,800 1,696 Climbing FlightAware ADS-B
Tue 12:45:57 AM 40.4770 -73.3810 102° East 363 418 10,600 1,200 Climbing FlightAware ADS-B
Tue 12:46:19 AM 40.4850 -73.3340 77° East 376 433 10,900 1,034 Climbing FlightAware ADS-B
Tue 12:46:55 AM 40.5190 -73.2590 59° Northeast 402 463 11,600 1,233 Climbing FlightAware ADS-B
Tue 12:47:32 AM 40.5560 -73.1790 59° Northeast 426 490 12,400 1,500 Climbing FlightAware ADS-B
Tue 12:48:03 AM 40.5870 -73.1140 58° Northeast 435 501 13,300 2,029 Climbing FlightAware ADS-B
Tue 12:48:40 AM 40.6290 -73.0250 58° Northeast 440 506 14,700 2,167 Climbing FlightAware ADS-B
Tue 12:49:15 AM 40.6660 -72.9470 58° Northeast 443 510 15,900 2,000 Climbing FlightAware ADS-B
Tue 12:49:52 AM 40.7070 -72.8610 58° Northeast 448 516 17,100 2,000 Climbing FlightAware ADS-B
Tue 12:50:27 AM 40.7450 -72.7790 59° Northeast 452 520 18,300 1,941 Climbing FlightAware ADS-B
Tue 12:51:00 AM 40.7830 -72.7010 57° Northeast 457 526 19,300 1,565 Climbing FlightAware ADS-B
Tue 12:51:36 AM 40.8230 -72.6150 58° Northeast 465 535 20,100 1,315 Climbing FlightAware ADS-B
Tue 12:52:13 AM 40.8650 -72.5260 58° Northeast 474 545 20,900 1,164 Climbing FlightAware ADS-B
Tue 12:52:43 AM 40.9000 -72.4520 58° Northeast 484 557 21,400 1,075 Climbing FlightAware ADS-B
Tue 12:53:20 AM 40.9470 -72.3550 57° Northeast 496 571 22,100 1,147 Climbing FlightAware ADS-B
Tue 12:53:51 AM 40.9840 -72.2780 58° Northeast 502 578 22,700 1,217 Climbing FlightAware ADS-B
Tue 12:54:29 AM 41.0280 -72.1870 57° Northeast 506 582 23,500 1,280 Climbing FlightAware ADS-B
Tue 12:55:06 AM 41.0770 -72.0820 58° Northeast 512 589 24,300 1,304 Climbing FlightAware ADS-B
Tue 12:55:38 AM 41.1170 -71.9930 59° Northeast 517 595 25,000 1,273 Climbing FlightAware ADS-B
Tue 12:56:12 AM 41.1580 -71.9030 59° Northeast 521 600 25,700 986 Climbing FlightAware ADS-B
Tue 12:56:51 AM 41.2050 -71.7980 59° Northeast 527 606 26,200 892 Climbing FlightAware ADS-B
Tue 12:57:26 AM 41.2500 -71.6970 59° Northeast 531 611 26,800 882 Climbing FlightAware ADS-B
Tue 12:57:59 AM 41.2920 -71.6040 59° Northeast 537 618 27,200 806 Climbing FlightAware ADS-B
Tue 12:58:33 AM 41.3370 -71.5040 59° Northeast 539 620 27,700 1,083 Climbing FlightAware ADS-B
Tue 12:59:11 AM 41.3850 -71.3970 59° Northeast 536 617 28,500 1,250 Climbing FlightAware ADS-B
Tue 12:59:45 AM 41.4290 -71.2980 59° Northeast 536 617 29,200 1,114 Climbing FlightAware ADS-B
Tue 01:00:21 AM 41.4730 -71.1990 59° Northeast 534 615 29,800 971 Climbing FlightAware ADS-B
Tue 01:00:53 AM 41.5120 -71.1120 59° Northeast 533 613 30,300 1,029 Climbing FlightAware ADS-B
Tue 01:01:31 AM 41.5630 -70.9990 59° Northeast 526 605 31,000 568 Climbing FlightAware ADS-B
Tue 01:02:07 AM 41.6060 -70.9020 59° Northeast 529 609 31,000  Level FlightAware ADS-B
Tue 01:02:42 AM 41.6450 -70.8130 60° Northeast 523 602 31,000  Level FlightAware ADS-B
Tue 01:03:15 AM 41.6910 -70.7100 59° Northeast 525 604 31,000  Level FlightAware ADS-B
Tue 01:03:51 AM 41.7350 -70.6100 59° Northeast 524 603 31,000  Level FlightAware ADS-B
Tue 01:04:41 AM 41.7890 -70.4860 60° Northeast 520 598 31,000 -71 Level FlightAware ADS-B
Tue 01:05:16 AM 41.8370 -70.3780 59° Northeast 518 596 30,900  Descending FlightAware ADS-B
Tue 01:05:57 AM 41.8830 -70.2720 60° Northeast 520 598 31,000  Climbing FlightAware ADS-B
Tue 01:06:35 AM 41.9340 -70.1540 60° Northeast 523 602 30,900  Descending FlightAware ADS-B
Tue 01:07:18 AM 41.9850 -70.0350 60° Northeast 522 601 31,000 76 Climbing FlightAware ADS-B
Tue 01:07:54 AM 42.0330 -69.9260 59° Northeast 522 601 31,000  Level FlightAware ADS-B
Tue 01:08:38 AM 42.0870 -69.8000 60° Northeast 524 603 31,000  Level FlightAware ADS-B
Tue 01:09:13 AM 42.1280 -69.7030 60° Northeast 526 605 31,000  Level FlightAware ADS-B
Tue 01:09:48 AM 42.1720 -69.6000 60° Northeast 529 609 31,000 -91 Level FlightAware ADS-B
Tue 01:10:19 AM 42.2090 -69.5120 60° Northeast 527 606 30,900 -91 Descending FlightAware ADS-B
Tue 01:10:54 AM 42.2520 -69.4110 60° Northeast 528 608 30,900 80 Level FlightAware ADS-B
Tue 01:11:34 AM 42.3000 -69.2980 60° Northeast 526 605 31,000 86 Climbing FlightAware ADS-B
Tue 01:12:04 AM 42.3360 -69.2100 61° Northeast 526 605 31,000  Level FlightAware ADS-B
Tue 01:12:39 AM 42.3770 -69.1130 60° Northeast 525 604 31,000  Level FlightAware ADS-B
Tue 01:13:14 AM 42.4190 -69.0110 61° Northeast 524 603 31,000  Level FlightAware ADS-B
Tue 01:13:49 AM 42.4610 -68.9120 60° Northeast 524 603 31,000  Level FlightAware ADS-B
Tue 01:14:35 AM 42.5150 -68.7820 61° Northeast 519 597 31,000  Level FlightAware ADS-B
Tue 01:15:24 AM 42.5720 -68.6400 61° Northeast 524 603 31,000  Level FlightAware ADS-B
Tue 01:15:54 AM 42.6090 -68.5520 60° Northeast 521 600 31,000  Level FlightAware ADS-B
Tue 01:16:33 AM 42.6470 -68.4570 61° Northeast 521 600 31,000  Level FlightAware ADS-B
Tue 01:17:09 AM 42.6830 -68.3690 61° Northeast 521 600 31,000  Level FlightAware ADS-B
Tue 01:17:46 AM 42.7200 -68.2790 61° Northeast 521 600 31,000  Level FlightAware ADS-B
Tue 01:18:22 AM 42.7560 -68.1910 61° Northeast 521 600 31,000  Level FlightAware ADS-B
Tue 01:18:59 AM 42.7920 -68.1010 61° Northeast 521 600 31,000  Level FlightAware ADS-B
Tue 01:19:35 AM 42.8280 -68.0130 61° Northeast 521 600 31,000  Level FlightAware ADS-B
Tue 01:20:11 AM 42.8640 -67.9250 61° Northeast 521 600 31,000  Level FlightAware ADS-B
Tue 01:20:48 AM 42.9010 -67.8350 61° Northeast 521 600 31,000  Level FlightAware ADS-B
Tue 01:21:24 AM 42.9360 -67.7460 62° Northeast 521 600 31,000  Level FlightAware ADS-B
Tue 01:22:00 AM 42.9720 -67.6580 61° Northeast 521 600 31,000  Level FlightAware ADS-B
Tue 01:22:36 AM 43.0730 -67.4080 61° Northeast 515 593 31,000  Level FlightAware ADS-B
Tue 01:23:25 AM 43.1310 -67.2590 62° Northeast 555 639 31,000  Level FlightAware ADS-B
Tue 01:24:40 AM 43.2140 -67.0430 62° Northeast 518 596 31,000  Level FlightAware ADS-B
Tue 01:25:15 AM 43.2550 -66.9380 62° Northeast 518 596 31,000  Level FlightAware ADS-B
Tue 01:25:58 AM 43.3010 -66.8200 62° Northeast 520 598 31,000  Level FlightAware ADS-B
Tue 01:26:35 AM 43.3360 -66.7280 62° Northeast 520 598 31,000  Level FlightAware ADS-B
Tue 01:27:10 AM 43.3860 -66.5990 62° Northeast 522 601 31,000  Level FlightAware ADS-B
Tue 01:27:45 AM 43.4250 -66.4970 62° Northeast 524 603 31,000  Level FlightAware ADS-B
Tue 01:28:21 AM 43.4650 -66.3930 62° Northeast 525 604 31,000  Level FlightAware ADS-B
Tue 01:28:55 AM 43.5040 -66.2900 62° Northeast 526 605 31,000  Level FlightAware ADS-B
Tue 01:29:30 AM 43.5440 -66.1840 62° Northeast 526 605 31,000  Level FlightAware ADS-B
Tue 01:30:05 AM 43.5820 -66.0820 63° Northeast 527 606 31,000  Level FlightAware ADS-B
Tue 01:30:40 AM 43.6220 -65.9750 63° Northeast 528 608 31,000 -86 Level FlightAware ADS-B
Tue 01:31:15 AM 43.6610 -65.8730 62° Northeast 528 608 30,900  Descending FlightAware ADS-B
Tue 01:31:50 AM 43.7010 -65.7650 63° Northeast 528 608 31,000 85 Climbing FlightAware ADS-B
Tue 01:32:26 AM 43.7400 -65.6600 63° Northeast 528 608 31,000  Level FlightAware ADS-B
Tue 01:33:00 AM 43.7780 -65.5550 63° Northeast 526 605 31,000  Level FlightAware ADS-B
Tue 01:33:36 AM 43.8190 -65.4470 62° Northeast 525 604 31,000 -85 Level FlightAware ADS-B
Tue 01:34:11 AM 43.8560 -65.3430 64° Northeast 520 598 30,900  Descending FlightAware ADS-B
Tue 01:34:51 AM 43.9000 -65.2250 63° Northeast 518 596 31,000 81 Climbing FlightAware ADS-B
Tue 01:35:25 AM 43.9380 -65.1200 63° Northeast 517 595 31,000  Level FlightAware ADS-B
Tue 01:36:05 AM 43.9800 -65.0040 63° Northeast 517 595 31,000  Level FlightAware ADS-B
Tue 01:36:35 AM 44.0140 -64.9120 63° Northeast 517 595 31,000  Level FlightAware ADS-B
Tue 01:37:11 AM 44.0530 -64.8040 63° Northeast 515 593 31,000  Level FlightAware ADS-B
Tue 01:37:49 AM 44.0920 -64.6940 64° Northeast 518 596 31,000  Level FlightAware ADS-B
Tue 01:38:29 AM 44.1340 -64.5770 63° Northeast 518 596 31,000  Level FlightAware ADS-B
Tue 01:39:04 AM 44.1690 -64.4770 64° Northeast 518 596 31,000 -80 Level FlightAware ADS-B
Tue 01:39:44 AM 44.2110 -64.3590 64° Northeast 518 596 30,900  Descending FlightAware ADS-B
Tue 01:40:19 AM 44.2500 -64.2490 64° Northeast 519 597 31,000 83 Climbing FlightAware ADS-B
Tue 01:40:56 AM 44.2870 -64.1440 64° Northeast 520 598 31,000  Level FlightAware ADS-B
Tue 01:41:31 AM 44.3260 -64.0320 64° Northeast 520 598 31,000 -85 Level FlightAware ADS-B
Tue 01:42:07 AM 44.3660 -63.9190 64° Northeast 517 595 30,900  Descending FlightAware ADS-B
Tue 01:42:44 AM 44.4040 -63.8090 64° Northeast 515 593 31,000 90 Climbing FlightAware ADS-B
Tue 01:43:14 AM 44.4370 -63.7160 64° Northeast 513 590 31,000  Level FlightAware ADS-B
Tue 01:43:59 AM 44.4810 -63.5880 64° Northeast 510 587 31,000  Level FlightAware ADS-B
Tue 01:44:34 AM 44.5140 -63.4940 64° Northeast 509 586 31,000  Level FlightAware ADS-B
Tue 01:45:14 AM 44.5580 -63.3640 65° Northeast 509 586 31,000  Level FlightAware ADS-B
Tue 01:45:49 AM 44.5900 -63.2720 64° Northeast 510 587 31,000  Level FlightAware ADS-B
Tue 01:46:24 AM 44.6300 -63.1540 64° Northeast 511 588 31,000  Level FlightAware ADS-B
Tue 01:46:59 AM 44.6630 -63.0550 65° Northeast 513 590 31,000  Level FlightAware ADS-B
Tue 01:47:34 AM 44.7000 -62.9460 64° Northeast 514 592 31,000  Level FlightAware ADS-B
Tue 01:48:15 AM 44.7400 -62.8240 65° Northeast 514 592 31,000 -79 Level FlightAware ADS-B
Tue 01:48:50 AM 44.7750 -62.7200 65° Northeast 512 589 30,900  Descending FlightAware ADS-B
Tue 01:49:42 AM 44.8230 -62.5740 65° Northeast 511 588 31,000 68 Climbing FlightAware ADS-B
Tue 01:50:18 AM 44.8540 -62.4820 65° Northeast 511 588 31,000  Level FlightAware ADS-B
Tue 01:50:54 AM 44.8850 -62.3890 65° Northeast 511 588 31,000  Level FlightAware ADS-B
Tue 01:51:30 AM 44.9150 -62.2970 65° Northeast 511 588 31,000  Level FlightAware ADS-B
Tue 01:52:06 AM 44.9460 -62.2040 65° Northeast 511 588 31,000  Level FlightAware ADS-B
Tue 01:52:42 AM 44.9760 -62.1110 65° Northeast 511 588 31,000  Level FlightAware ADS-B
Tue 01:53:19 AM 45.0080 -62.0160 64° Northeast 511 588 31,000  Level FlightAware ADS-B
Tue 01:53:55 AM 45.0380 -61.9230 65° Northeast 511 588 31,000  Level FlightAware ADS-B
Tue 01:54:31 AM 45.0690 -61.8310 64° Northeast 511 588 31,000  Level FlightAware ADS-B
Tue 01:55:07 AM 45.0990 -61.7380 65° Northeast 511 588 31,000  Level FlightAware ADS-B
Tue 01:55:43 AM 45.1300 -61.6450 65° Northeast 511 588 31,000  Level FlightAware ADS-B
Tue 01:56:20 AM 45.1610 -61.5490 65° Northeast 511 588 31,000  Level FlightAware ADS-B
Tue 01:56:56 AM 45.1920 -61.4560 65° Northeast 511 588 31,000  Level FlightAware ADS-B
Tue 01:57:32 AM 45.2220 -61.3630 65° Northeast 511 588 31,000  Level FlightAware ADS-B
Tue 01:58:04 AM 45.3200 -61.0290 67° East 516 594 31,000  Level FlightAware ADS-B
Tue 01:58:40 AM 45.3550 -60.9140 67° East 517 595 31,000  Level FlightAware ADS-B
Tue 01:59:17 AM 45.3890 -60.8050 66° East 517 595 31,000  Level FlightAware ADS-B
Tue 01:59:50 AM 45.4230 -60.6950 66° East 519 597 31,000 529 Level FlightAware ADS-B
Tue 02:00:25 AM 45.4550 -60.5900 66° East 519 597 31,600 1,068 Climbing FlightAware ADS-B
Tue 02:01:03 AM 45.4920 -60.4670 67° East 520 598 32,300 1,029 Climbing FlightAware ADS-B
Tue 02:01:35 AM 45.5230 -60.3660 66° East 520 598 32,800 600 Climbing FlightAware ADS-B
Tue 02:02:13 AM 45.5590 -60.2480 66° East 522 601 33,000 167 Climbing FlightAware ADS-B
Tue 02:02:47 AM 45.5910 -60.1390 67° East 522 601 33,000  Level FlightAware ADS-B
Tue 02:03:23 AM 45.6260 -60.0250 66° East 523 602 33,000 -88 Level FlightAware ADS-B
Tue 02:03:55 AM 45.6570 -59.9220 67° East 524 603 32,900  Descending FlightAware ADS-B
Tue 02:04:32 AM 45.6910 -59.8050 67° East 527 606 33,000 82 Climbing FlightAware ADS-B
Tue 02:05:08 AM 45.7260 -59.6870 67° East 530 610 33,000  Level FlightAware ADS-B
Tue 02:05:40 AM 45.7560 -59.5840 67° East 533 613 33,000  Level FlightAware ADS-B
Tue 02:06:16 AM 45.7900 -59.4680 67° East 536 617 33,000 -85 Level FlightAware ADS-B
Tue 02:06:51 AM 45.8240 -59.3540 67° East 537 618 32,900 -83 Descending FlightAware ADS-B
Tue 02:07:28 AM 45.8590 -59.2320 68° East 537 618 32,900  Level FlightAware ADS-B
Tue 02:08:00 AM 45.8900 -59.1250 67° East 537 618 32,900 86 Level FlightAware ADS-B
Tue 02:08:38 AM 45.9250 -59.0030 68° East 536 617 33,000  Climbing FlightAware ADS-B
Tue 02:09:10 AM 45.9560 -58.8940 68° East 535 616 32,900  Descending FlightAware ADS-B
Tue 02:09:45 AM 45.9880 -58.7810 68° East 534 615 33,000 85 Climbing FlightAware ADS-B
Tue 02:10:21 AM 46.0220 -58.6600 68° East 534 615 33,000  Level FlightAware ADS-B
Tue 02:10:57 AM 46.0550 -58.5450 67° East 532 612 33,000  Level FlightAware ADS-B
Tue 02:11:27 AM 46.0820 -58.4460 69° East 532 612 33,000  Level FlightAware ADS-B
Tue 02:12:02 AM 46.1150 -58.3310 67° East 531 611 33,000  Level FlightAware ADS-B
Tue 02:12:35 AM 46.1450 -58.2200 69° East 531 611 33,000  Level FlightAware ADS-B
Tue 02:13:18 AM 46.1800 -58.0980 67° East 531 611 33,000  Level FlightAware ADS-B
Tue 02:13:54 AM 46.2080 -57.9970 68° East 531 611 33,000  Level FlightAware ADS-B
Tue 02:14:30 AM 46.2360 -57.8960 68° East 531 611 33,000  Level FlightAware ADS-B
Tue 02:15:06 AM 46.2640 -57.7950 68° East 531 611 33,000  Level FlightAware ADS-B
Tue 02:15:42 AM 46.2920 -57.6950 68° East 531 611 33,000  Level FlightAware ADS-B
Tue 02:16:18 AM 46.3200 -57.5940 68° East 531 611 33,000  Level FlightAware ADS-B
Tue 02:16:55 AM 46.3490 -57.4900 68° East 531 611 33,000  Level FlightAware ADS-B
Tue 02:17:31 AM 46.3770 -57.3890 68° East 531 611 33,000  Level FlightAware ADS-B
Tue 02:18:06 AM 46.4380 -57.1330 71° East 529 609 33,000  Level FlightAware ADS-B
Tue 02:18:45 AM 46.4720 -56.9980 70° East 529 609 33,000  Level FlightAware ADS-B
Tue 02:19:22 AM 46.5010 -56.8850 70° East 529 609 33,000  Level FlightAware ADS-B
Tue 02:19:56 AM 46.5290 -56.7740 70° East 530 610 33,000  Level FlightAware ADS-B
Tue 02:20:30 AM 46.5600 -56.6480 70° East 530 610 33,000  Level FlightAware ADS-B
Tue 02:21:13 AM 46.5960 -56.5060 70° East 530 610 33,000  Level FlightAware ADS-B
Tue 02:21:50 AM 46.6260 -56.3880 70° East 531 611 33,000  Level FlightAware ADS-B
Tue 02:22:26 AM 46.6570 -56.2610 70° East 532 612 33,000  Level FlightAware ADS-B
Tue 02:22:56 AM 46.6810 -56.1630 70° East 532 612 33,000  Level FlightAware ADS-B
Tue 02:23:35 AM 46.7130 -56.0300 71° East 532 612 33,000  Level FlightAware ADS-B
Tue 02:24:09 AM 46.7420 -55.9110 70° East 533 613 33,000  Level FlightAware ADS-B
Tue 02:24:45 AM 46.7710 -55.7930 70° East 533 613 33,000  Level FlightAware ADS-B
Tue 02:25:17 AM 46.7970 -55.6860 70° East 532 612 33,000 -87 Level FlightAware ADS-B
Tue 02:25:54 AM 46.8270 -55.5610 71° East 532 612 32,900  Descending FlightAware ADS-B
Tue 02:26:29 AM 46.8560 -55.4400 71° East 532 612 33,000 85 Climbing FlightAware ADS-B
Tue 02:27:05 AM 46.8850 -55.3170 71° East 532 612 33,000  Level FlightAware ADS-B
Tue 02:27:41 AM 46.9140 -55.1920 71° East 532 612 33,000  Level FlightAware ADS-B
Tue 02:28:13 AM 46.9390 -55.0820 72° East 533 613 33,000  Level FlightAware ADS-B
Tue 02:28:49 AM 46.9680 -54.9610 71° East 532 612 33,000  Level FlightAware ADS-B
Tue 02:29:27 AM 46.9980 -54.8310 71° East 533 613 33,000 -86 Level FlightAware ADS-B
Tue 02:29:59 AM 47.0230 -54.7200 72° East 532 612 32,900 -90 Descending FlightAware ADS-B
Tue 02:30:34 AM 47.0500 -54.6030 71° East 532 612 32,900  Level FlightAware ADS-B
Tue 02:31:11 AM 47.0790 -54.4770 71° East 533 613 32,900 82 Level FlightAware ADS-B
Tue 02:31:47 AM 47.1080 -54.3510 71° East 532 612 33,000 88 Climbing FlightAware ADS-B
Tue 02:32:19 AM 47.1330 -54.2390 72° East 533 613 33,000  Level FlightAware ADS-B
Tue 02:32:55 AM 47.1610 -54.1180 71° East 532 612 33,000  Level FlightAware ADS-B
Tue 02:33:31 AM 47.1880 -53.9960 72° East 533 613 33,000  Level FlightAware ADS-B
Tue 02:34:05 AM 47.2140 -53.8770 72° East 532 612 33,000  Level FlightAware ADS-B
Tue 02:34:41 AM 47.2420 -53.7520 72° East 532 612 33,000  Level FlightAware ADS-B
Tue 02:35:13 AM 47.2650 -53.6450 72° East 533 613 33,000 -86 Level FlightAware ADS-B
Tue 02:35:51 AM 47.2940 -53.5130 72° East 533 613 32,900  Descending FlightAware ADS-B
Tue 02:36:21 AM 47.3170 -53.4100 72° East 534 615 33,000 88 Climbing FlightAware ADS-B
Tue 02:36:59 AM 47.3450 -53.2780 73° East 532 612 33,000  Level FlightAware ADS-B
Tue 02:37:36 AM 47.3720 -53.1520 72° East 533 613 33,000  Level FlightAware ADS-B
Tue 02:38:09 AM 47.3970 -53.0370 72° East 532 612 33,000  Level FlightAware ADS-B
Tue 02:38:45 AM 47.4240 -52.9100 73° East 532 612 33,000  Level FlightAware ADS-B
Tue 02:39:23 AM 47.4520 -52.7790 72° East 533 613 33,000  Level FlightAware ADS-B
Tue 02:39:55 AM 47.4750 -52.6680 73° East 533 613 33,000  Level FlightAware ADS-B
Tue 02:40:31 AM 47.5010 -52.5440 73° East 534 615 33,000 -88 Level FlightAware ADS-B
Tue 02:41:03 AM 47.5250 -52.4320 72° East 533 613 32,900  Descending FlightAware ADS-B
Tue 02:41:41 AM 47.5530 -52.2980 73° East 533 613 33,000 429 Climbing FlightAware ADS-B
Tue 02:42:13 AM 47.5760 -52.1880 73° East 533 613 33,400 971 Climbing FlightAware ADS-B
Tue 02:42:49 AM 47.6020 -52.0620 73° East 531 611 34,100 971 Climbing FlightAware ADS-B
Tue 02:43:21 AM 47.6240 -51.9500 74° East 531 611 34,500 771 Climbing FlightAware ADS-B
Tue 02:43:59 AM 47.6510 -51.8180 73° East 530 610 35,000 405 Climbing FlightAware ADS-B
Tue 02:44:35 AM 47.6770 -51.6900 73° East 530 610 35,000 -78 Level FlightAware ADS-B
Tue 02:45:16 AM 47.7040 -51.5510 74° East 529 609 34,900  Descending FlightAware ADS-B
Tue 02:45:51 AM 47.7280 -51.4290 74° East 528 608 35,000 80 Climbing FlightAware ADS-B
Tue 02:46:31 AM 47.7550 -51.2900 74° East 528 608 35,000  Level FlightAware ADS-B
Tue 02:47:06 AM 47.7790 -51.1650 74° East 529 609 35,000  Level FlightAware ADS-B
Tue 02:47:41 AM 47.8010 -51.0490 74° East 530 610 35,000  Level FlightAware ADS-B
Tue 02:48:16 AM 47.8250 -50.9260 74° East 530 610 35,000  Level FlightAware ADS-B
Tue 02:48:51 AM 47.8480 -50.8090 74° East 529 609 35,000 -92 Level FlightAware ADS-B
Tue 02:49:21 AM 47.8680 -50.7010 75° East 529 609 34,900 -86 Descending FlightAware ADS-B
Tue 02:50:01 AM 47.8960 -50.5550 74° East 527 606 34,900 71 Level FlightAware ADS-B
Tue 02:50:46 AM 47.9200 -50.4210 75° East 527 606 35,000 74 Climbing FlightAware ADS-B
Tue 02:51:22 AM 47.9390 -50.3130 75° East 527 606 35,000  Level FlightAware ADS-B
Tue 02:51:56 AM 47.9580 -50.2110 74° East 527 606 35,000  Level FlightAware ADS-B
Tue 02:52:33 AM 47.9770 -50.1010 75° East 527 606 35,000  Level FlightAware ADS-B
Tue 02:53:00 AM 48.0000 -50.0000 78° East 535 616 35,000  Level ETMS Enhanced Traffic Management System
Tue 02:53:09 AM 47.9970 -49.9930 74° East 527 606 35,000  Level FlightAware ADS-B
Tue 02:53:45 AM 48.0160 -49.8850 75° East 527 606 35,000 -118 Level FlightAware ADS-B
Tue 02:54:00 AM 48.0333 -49.6667 78° East 530 610 34,900  Descending Gander Center
Tue 02:54:21 AM 48.0350 -49.7780 75° East 527 606 35,000 105 Climbing FlightAware ADS-B
Tue 02:54:57 AM 48.0550 -49.6700 74° East 527 606 35,000  Level FlightAware ADS-B
Tue 02:55:33 AM 48.0740 -49.5620 75° East 527 606 35,000  Level FlightAware ADS-B
Tue 02:56:09 AM 48.0930 -49.4540 75° East 527 606 35,000  Level FlightAware ADS-B
Tue 02:56:45 AM 48.1130 -49.3460 74° East 527 606 35,000  Level FlightAware ADS-B
Tue 02:57:21 AM 48.1320 -49.2380 75° East 527 606 35,000  Level FlightAware ADS-B
Tue 02:57:57 AM 48.1510 -49.1300 75° East 527 606 35,000  Level FlightAware ADS-B
Tue 02:58:33 AM 48.1700 -49.0220 75° East 527 606 35,000  Level FlightAware ADS-B
Tue 02:59:09 AM 48.1900 -48.9140 78° East 527 606 35,000  Level FlightAware ADS-B
Tue 02:59:46 AM 48.2100 -48.8030 75° East 527 606 35,000 -58 Level FlightAware ADS-B
Tue 03:00:53 AM 48.2000 -48.1500 75° East 530 610 34,900 -47 Descending Gander Center
Tue 03:01:53 AM 48.2167 -47.9500 83° East 530 610 34,900  Level Gander Center
Tue 03:02:53 AM 48.2500 -47.7333 77° East 530 610 34,900  Level Gander Center
Tue 03:03:53 AM 48.2667 -47.5000 84° East 530 610 34,900  Level Gander Center
Tue 03:04:53 AM 48.3000 -47.2833 77° East 530 610 34,900  Level Gander Center
Tue 03:06:53 AM 48.3500 -46.8667 80° East 520 598 34,900  Level Gander Center
Tue 03:08:00 AM 48.4000 -46.6167 73° East 530 610 34,900 Level Gander Center
Tue 03:09:00 AM 48.4254 -46.4048 80° East  Level FlightAware Approximate
Tue 03:16:00 AM 48.5919 -44.9162 80° East  Level FlightAware Approximate
Tue 03:17:00 AM 48.6141 -44.7028 81° East  Level FlightAware Approximate
Tue 03:18:00 AM 48.6360 -44.4891 81° East  Level FlightAware Approximate
Tue 03:19:00 AM 48.6574 -44.2753 81° East  Level FlightAware Approximate
Tue 03:20:00 AM 48.6784 -44.0613 81° East  Level FlightAware Approximate
Tue 03:21:00 AM 48.6991 -43.8472 82° East  Level FlightAware Approximate
Tue 03:22:00 AM 48.7193 -43.6328 82° East  Level FlightAware Approximate
Tue 03:23:00 AM 48.7392 -43.4183 82° East  Level FlightAware Approximate
Tue 03:24:00 AM 48.7586 -43.2036 82° East  Level FlightAware Approximate
Tue 03:25:00 AM 48.7776 -42.9888 82° East  Level FlightAware Approximate
Tue 03:26:00 AM 48.7963 -42.7738 82° East  Level FlightAware Approximate
Tue 03:27:00 AM 48.8145 -42.5586 83° East  Level FlightAware Approximate
Tue 03:28:00 AM 48.8324 -42.3433 83° East  Level FlightAware Approximate
Tue 03:29:00 AM 48.8498 -42.1278 83° East  Level FlightAware Approximate
Tue 03:30:00 AM 48.8669 -41.9122 83° East  Level FlightAware Approximate
Tue 03:31:00 AM 48.8835 -41.6964 83° East  Level FlightAware Approximate
Tue 03:32:00 AM 48.8998 -41.4805 83° East  Level FlightAware Approximate
Tue 03:33:00 AM 48.9156 -41.2645 84° East  Level FlightAware Approximate
Tue 03:34:00 AM 48.9310 -41.0483 84° East  Level FlightAware Approximate
Tue 03:35:00 AM 48.9460 -40.8320 84° East  Level FlightAware Approximate
Tue 03:36:00 AM 48.9607 -40.6155 84° East  Level FlightAware Approximate
Tue 03:37:00 AM 48.9749 -40.3990 84° East  Level FlightAware Approximate
Tue 03:38:00 AM 48.9887 -40.1823 84° East  Level FlightAware Approximate
Tue 03:39:00 AM 49.0050 -39.9657 77° East  Level FlightAware Approximate
Tue 03:40:00 AM 49.0358 -39.7529 77° East  Level FlightAware Approximate
Tue 03:40:00 AM 49.0000 -40.0000 77° East 537 618 35,000  Level ETMS Enhanced Traffic Management System
Tue 03:41:00 AM 49.0661 -39.5399 78° East  Level FlightAware Approximate
Tue 03:42:00 AM 49.0961 -39.3266 78° East  Level FlightAware Approximate
Tue 03:43:00 AM 49.1256 -39.1134 78° East  Level FlightAware Approximate
Tue 03:44:00 AM 49.1548 -38.9000 78° East  Level FlightAware Approximate
Tue 03:45:00 AM 49.1835 -38.6863 78° East  Level FlightAware Approximate
Tue 03:46:00 AM 49.2454 -38.2148 79° East 537 618 35,000  Level FlightAware Transoceanic
Tue 03:47:00 AM 49.2742 -37.9904 79° East 537 618 35,000  Level FlightAware Transoceanic
Tue 03:48:00 AM 49.3025 -37.7658 79° East 537 618 35,000  Level FlightAware Transoceanic
Tue 03:49:00 AM 49.3303 -37.5409 79° East 537 618 35,000  Level FlightAware Transoceanic
Tue 03:50:00 AM 49.3578 -37.3157 79° East 537 618 35,000  Level FlightAware Transoceanic
Tue 03:51:00 AM 49.3848 -37.0904 80° East 537 618 35,000  Level FlightAware Transoceanic
Tue 03:52:00 AM 49.4113 -36.8647 80° East 537 618 35,000  Level FlightAware Transoceanic
Tue 03:53:00 AM 49.4374 -36.6388 80° East 537 618 35,000  Level FlightAware Transoceanic
Tue 03:54:00 AM 49.4631 -36.4127 80° East 537 618 35,000  Level FlightAware Transoceanic
Tue 03:55:00 AM 49.4883 -36.1864 80° East 537 618 35,000  Level FlightAware Transoceanic
Tue 03:56:00 AM 49.5131 -35.9598 81° East 537 618 35,000  Level FlightAware Transoceanic
Tue 03:57:00 AM 49.5375 -35.7330 81° East 537 618 35,000  Level FlightAware Transoceanic
Tue 03:58:00 AM 49.5614 -35.5059 81° East 537 618 35,000  Level FlightAware Transoceanic
Tue 03:59:00 AM 49.5848 -35.2787 81° East 537 618 35,000  Level FlightAware Transoceanic
Tue 04:00:00 AM 49.6078 -35.0512 81° East 537 618 35,000  Level FlightAware Transoceanic
Tue 04:01:00 AM 49.6304 -34.8235 81° East 537 618 35,000  Level FlightAware Transoceanic
Tue 04:02:00 AM 49.6525 -34.5956 82° East 537 618 35,000  Level FlightAware Transoceanic
Tue 04:03:00 AM 49.6742 -34.3675 82° East 537 618 35,000  Level FlightAware Transoceanic
Tue 04:04:00 AM 49.6954 -34.1393 82° East 537 618 35,000  Level FlightAware Transoceanic
Tue 04:05:00 AM 49.7162 -33.9108 82° East 537 618 35,000  Level FlightAware Transoceanic
Tue 04:06:00 AM 49.7365 -33.6821 82° East 537 618 35,000  Level FlightAware Transoceanic
Tue 04:07:00 AM 49.7564 -33.4532 82° East 537 618 35,000  Level FlightAware Transoceanic
Tue 04:08:00 AM 49.7758 -33.2241 83° East 537 618 35,000  Level FlightAware Transoceanic
Tue 04:09:00 AM 49.7948 -32.9949 83° East 537 618 35,000  Level FlightAware Transoceanic
Tue 04:10:00 AM 49.8133 -32.7654 83° East 537 618 35,000  Level FlightAware Transoceanic
Tue 04:11:00 AM 49.8314 -32.5359 83° East 537 618 35,000  Level FlightAware Transoceanic
Tue 04:12:00 AM 49.8490 -32.3061 83° East 537 618 35,000  Level FlightAware Transoceanic
Tue 04:13:00 AM 49.8661 -32.0761 83° East 537 618 35,000  Level FlightAware Transoceanic
Tue 04:14:00 AM 49.8828 -31.8461 84° East 537 618 35,000  Level FlightAware Transoceanic
Tue 04:15:00 AM 49.8991 -31.6158 84° East 537 618 35,000  Level FlightAware Transoceanic
Tue 04:16:00 AM 49.9149 -31.3854 84° East 537 618 35,000  Level FlightAware Transoceanic
Tue 04:17:00 AM 49.9302 -31.1549 84° East 537 618 35,000  Level FlightAware Transoceanic
Tue 04:18:00 AM 49.9451 -30.9242 84° East 537 618 35,000  Level FlightAware Transoceanic
Tue 04:19:00 AM 49.9595 -30.6933 85° East 537 618 35,000  Level FlightAware Transoceanic
Tue 04:20:00 AM 49.9735 -30.4623 85° East 537 618 35,000  Level FlightAware Transoceanic
Tue 04:21:00 AM 49.9870 -30.2312 85° East 537 618 35,000  Level FlightAware Transoceanic
Tue 04:22:00 AM 49.9994 -30.0102 85° East  Level FlightAware Approximate
Tue 04:23:00 AM 50.0116 -29.7891 85° East  Level FlightAware Approximate
Tue 04:24:00 AM 50.0281 -29.8033 77° East  Level FlightAware Approximate
Tue 04:24:00 AM 50.0000 -30.0000 77° East 526 605 35,000  Level ETMS Enhanced Traffic Management System
Tue 04:25:00 AM 50.0586 -29.5864 78° East  Level FlightAware Approximate
Tue 04:26:00 AM 50.0887 -29.3695 78° East  Level FlightAware Approximate
Tue 04:27:00 AM 50.1184 -29.1524 78° East  Level FlightAware Approximate
Tue 04:28:00 AM 50.1477 -28.9350 78° East  Level FlightAware Approximate
Tue 04:29:00 AM 50.1766 -28.7174 78° East  Level FlightAware Approximate
Tue 04:30:00 AM 50.2450 -28.2159 79° East 526 605 35,000  Level FlightAware Transoceanic
Tue 04:31:00 AM 50.2737 -27.9917 79° East 526 605 35,000  Level FlightAware Transoceanic
Tue 04:32:00 AM 50.3020 -27.7671 79° East 526 605 35,000  Level FlightAware Transoceanic
Tue 04:33:00 AM 50.3298 -27.5423 79° East 526 605 35,000  Level FlightAware Transoceanic
Tue 04:34:00 AM 50.3572 -27.3173 79° East 526 605 35,000  Level FlightAware Transoceanic
Tue 04:35:00 AM 50.3842 -27.0919 79° East 526 605 35,000  Level FlightAware Transoceanic
Tue 04:36:00 AM 50.4107 -26.8664 80° East 526 605 35,000  Level FlightAware Transoceanic
Tue 04:37:00 AM 50.4368 -26.6406 80° East 526 605 35,000  Level FlightAware Transoceanic
Tue 04:38:00 AM 50.4625 -26.4145 80° East 526 605 35,000  Level FlightAware Transoceanic
Tue 04:39:00 AM 50.4877 -26.1882 80° East 526 605 35,000  Level FlightAware Transoceanic
Tue 04:40:00 AM 50.5125 -25.9616 80° East 526 605 35,000  Level FlightAware Transoceanic
Tue 04:41:00 AM 50.5368 -25.7348 81° East 526 605 35,000  Level FlightAware Transoceanic
Tue 04:42:00 AM 50.5607 -25.5078 81° East 526 605 35,000  Level FlightAware Transoceanic
Tue 04:43:00 AM 50.5841 -25.2805 81° East 526 605 35,000  Level FlightAware Transoceanic
Tue 04:44:00 AM 50.6072 -25.0531 81° East 526 605 35,000  Level FlightAware Transoceanic
Tue 04:45:00 AM 50.6297 -24.8254 81° East 526 605 35,000  Level FlightAware Transoceanic
Tue 04:46:00 AM 50.6519 -24.5975 81° East 526 605 35,000  Level FlightAware Transoceanic
Tue 04:47:00 AM 50.6735 -24.3693 82° East 526 605 35,000  Level FlightAware Transoceanic
Tue 04:48:00 AM 50.6948 -24.1410 82° East 526 605 35,000  Level FlightAware Transoceanic
Tue 04:49:00 AM 50.7156 -23.9125 82° East 526 605 35,000  Level FlightAware Transoceanic
Tue 04:50:00 AM 50.7359 -23.6837 82° East 526 605 35,000  Level FlightAware Transoceanic
Tue 04:51:00 AM 50.7558 -23.4548 82° East 526 605 35,000  Level FlightAware Transoceanic
Tue 04:52:00 AM 50.7752 -23.2257 82° East 526 605 35,000  Level FlightAware Transoceanic
Tue 04:53:00 AM 50.7942 -22.9963 83° East 526 605 35,000  Level FlightAware Transoceanic
Tue 04:54:00 AM 50.8128 -22.7668 83° East 526 605 35,000  Level FlightAware Transoceanic
Tue 04:55:00 AM 50.8309 -22.5372 83° East 526 605 35,000  Level FlightAware Transoceanic
Tue 04:56:00 AM 50.8485 -22.3073 83° East 526 605 35,000  Level FlightAware Transoceanic
Tue 04:57:00 AM 50.8657 -22.0773 83° East 526 605 35,000  Level FlightAware Transoceanic
Tue 04:58:00 AM 50.8824 -21.8471 84° East 526 605 35,000  Level FlightAware Transoceanic
Tue 04:59:00 AM 50.8987 -21.6167 84° East 526 605 35,000  Level FlightAware Transoceanic
Tue 05:00:00 AM 50.9146 -21.3862 84° East 526 605 35,000  Level FlightAware Transoceanic
Tue 05:01:00 AM 50.9299 -21.1555 84° East 526 605 35,000  Level FlightAware Transoceanic
Tue 05:02:00 AM 50.9449 -20.9247 84° East 526 605 35,000  Level FlightAware Transoceanic
Tue 05:03:00 AM 50.9593 -20.6937 84° East 526 605 35,000  Level FlightAware Transoceanic
Tue 05:04:00 AM 50.9733 -20.4626 85° East 526 605 35,000  Level FlightAware Transoceanic
Tue 05:05:00 AM 50.9869 -20.2314 85° East 526 605 35,000 -2 Level FlightAware Transoceanic
Tue 05:06:00 AM 50.9997 -20.0061 85° East  Level FlightAware Approximate
Tue 05:07:00 AM 51.0121 -19.7806 85° East  Level FlightAware Approximate
Tue 05:08:00 AM 50.9767 -19.7892 100° East  Level FlightAware Approximate
Tue 05:09:00 AM 50.9517 -19.5666 100° East  Level FlightAware Approximate
Tue 05:10:00 AM 50.9263 -19.3443 100° East  Level FlightAware Approximate
Tue 05:11:00 AM 50.9005 -19.1226 100° East  Level FlightAware Approximate
Tue 05:12:00 AM 50.8743 -18.9015 101° East  Level FlightAware Approximate
Tue 05:13:00 AM 50.8476 -18.6807 101° East  Level FlightAware Approximate
Tue 05:14:00 AM 50.8206 -18.4601 101° East  Level FlightAware Approximate
Tue 05:15:00 AM 50.7932 -18.2398 101° East  Level FlightAware Approximate
Tue 05:16:00 AM 50.7653 -18.0197 101° East  Level FlightAware Approximate
Tue 05:17:00 AM 50.7371 -17.7999 101° East  Level FlightAware Approximate
Tue 05:18:00 AM 50.7084 -17.5804 102° East  Level FlightAware Approximate
Tue 05:19:00 AM 50.6793 -17.3611 102° East  Level FlightAware Approximate
Tue 05:20:00 AM 50.6498 -17.1422 102° East  Level FlightAware Approximate
Tue 05:21:00 AM 50.6199 -16.9235 102° East  Level FlightAware Approximate
Tue 05:22:00 AM 50.5892 -16.7052 102° East  Level FlightAware Approximate
Tue 05:23:00 AM 50.5580 -16.4872 103° East  Level FlightAware Approximate
Tue 05:24:00 AM 50.5265 -16.2695 103° East  Level FlightAware Approximate
Tue 05:25:00 AM 50.4945 -16.0521 103° East  Level FlightAware Approximate
Tue 05:26:00 AM 50.4621 -15.8350 103° East  Level FlightAware Approximate
Tue 05:27:00 AM 50.4293 -15.6182 103° East  Level FlightAware Approximate
Tue 05:28:00 AM 50.3961 -15.4017 103° East  Level FlightAware Approximate
Tue 05:29:00 AM 50.3625 -15.1855 104° East  Level FlightAware Approximate
Tue 05:30:00 AM 50.3286 -14.9696 104° East  Level FlightAware Approximate
Tue 05:31:00 AM 50.2946 -14.7538 104° East  Level FlightAware Approximate
Tue 05:32:00 AM 50.2602 -14.5384 104° East  Level FlightAware Approximate
Tue 05:33:00 AM 50.2254 -14.3233 104° East  Level FlightAware Approximate
Tue 05:34:00 AM 50.1902 -14.1085 104° East  Level FlightAware Approximate
Tue 05:35:00 AM 50.1546 -13.8941 104° East  Level FlightAware Approximate
Tue 05:36:00 AM 50.1180 -13.6801 105° East  Level FlightAware Approximate
Tue 05:37:00 AM 50.0810 -13.4666 105° East  Level FlightAware Approximate
Tue 05:38:00 AM 50.0435 -13.2534 105° East  Level FlightAware Approximate
Tue 05:39:00 AM 50.0057 -13.0405 105° East  Level FlightAware Approximate
Tue 05:40:00 AM 49.9674 -12.8280 106° East  Level FlightAware Approximate
Tue 05:41:00 AM 49.9288 -12.6158 106° East  Level FlightAware Approximate
Tue 05:42:00 AM 49.8898 -12.4039 106° East  Level FlightAware Approximate
Tue 05:43:00 AM 49.8505 -12.1924 106° East  Level FlightAware Approximate
Tue 05:44:00 AM 49.8107 -11.9812 106° East  Level FlightAware Approximate
Tue 05:44:12 AM 50.2890 -11.3280 106° East 559 643 34,900  Level FlightAware ADS-B
Tue 05:44:50 AM 50.2560 -11.1870 110° East 555 639 34,900  Level FlightAware ADS-B
Tue 05:45:00 AM 49.7705 -11.7704 106° East  Level FlightAware Approximate
Tue 05:45:29 AM 50.2270 -11.0620 110° East 555 639 34,900  Level FlightAware ADS-B
Tue 05:46:09 AM 50.1930 -10.9100 109° East 549 632 35,000  Climbing FlightAware ADS-B
Tue 05:46:50 AM 50.1580 -10.7350 107° East 539 620 34,900 -80 Descending FlightAware ADS-B
Tue 05:47:24 AM 50.1320 -10.6130 108° East 537 618 34,900  Level FlightAware ADS-B
Tue 05:47:56 AM 50.1060 -10.4900 108° East 535 616 34,900  Level FlightAware ADS-B
Tue 05:48:45 AM 50.0710 -10.3280 109° East 533 613 34,900  Level FlightAware ADS-B
Tue 05:49:16 AM 50.0420 -10.2060 110° East 530 610 34,900 90 Level FlightAware ADS-B
Tue 05:49:52 AM 50.0120 -10.0740 109° East 529 609 35,000 88 Climbing FlightAware ADS-B
Tue 05:50:24 AM 49.9850 -9.9640 111° Southeast 528 608 35,000  Level FlightAware ADS-B
Tue 05:51:03 AM 49.9580 -9.8450 109° East 528 608 35,000  Level FlightAware ADS-B
Tue 05:51:39 AM 49.9320 -9.7360 110° East 528 608 35,000  Level FlightAware ADS-B
Tue 05:52:18 AM 49.8870 -9.5620 112° Southeast 527 606 35,000  Level FlightAware ADS-B
Tue 05:52:53 AM 49.8570 -9.4390 111° Southeast 525 604 35,000 -83 Level FlightAware ADS-B
Tue 05:53:30 AM 49.8220 -9.3030 112° Southeast 531 611 34,900  Descending FlightAware ADS-B
Tue 05:54:02 AM 49.7930 -9.1900 112° Southeast 531 611 35,000 88 Climbing FlightAware ADS-B
Tue 05:54:38 AM 49.7610 -9.0670 112° Southeast 532 612 35,000 -83 Level FlightAware ADS-B
Tue 05:55:14 AM 49.7270 -8.9380 112° Southeast 532 612 34,900  Descending FlightAware ADS-B
Tue 05:55:50 AM 49.6930 -8.8110 112° Southeast 533 613 35,000  Climbing FlightAware ADS-B
Tue 05:56:20 AM 49.6538 -8.6853 112° Southeast 486 559 34,900  Descending FlightAware UK
Tue 05:56:22 AM 49.6630 -8.6990 112° Southeast 535 616 35,000  Climbing FlightAware ADS-B
Tue 05:57:00 AM 49.6270 -8.5640 112° Southeast 536 617 34,900  Descending FlightAware ADS-B
Tue 05:57:32 AM 49.5970 -8.4500 112° Southeast 536 617 35,000  Climbing FlightAware ADS-B
Tue 05:58:08 AM 49.5630 -8.3230 112° Southeast 536 617 34,900 -83 Descending FlightAware ADS-B
Tue 05:58:44 AM 49.5290 -8.1970 113° Southeast 536 617 34,900  Level FlightAware ADS-B
Tue 05:59:20 AM 49.4843 -8.0533 113° Southeast 490 564 34,900 167 Level FlightAware UK
Tue 05:59:20 AM 49.4940 -8.0680 113° Southeast 536 617 35,000  Climbing FlightAware ADS-B
Tue 05:59:50 AM 49.4552 -7.9476 113° Southeast 492 566 34,900 -188 Descending FlightAware UK
Tue 05:59:52 AM 49.4630 -7.9560 113° Southeast 536 617 34,900  Level FlightAware ADS-B
Tue 06:00:28 AM 49.4290 -7.8310 113° Southeast 535 616 34,900 86 Level FlightAware ADS-B
Tue 06:01:02 AM 49.3970 -7.7150 113° Southeast 536 617 35,000 86 Climbing FlightAware ADS-B
Tue 06:01:38 AM 49.3590 -7.5880 115° Southeast 535 616 35,000 -83 Level FlightAware ADS-B
Tue 06:02:14 AM 49.3170 -7.4720 119° Southeast 536 617 34,900  Descending FlightAware ADS-B
Tue 06:02:50 AM 49.2730 -7.3460 118° Southeast 536 617 35,000  Climbing FlightAware ADS-B
Tue 06:03:20 AM 49.2253 -7.2316 118° Southeast 492 566 34,900 -188 Descending FlightAware UK
Tue 06:03:22 AM 49.2370 -7.2460 118° Southeast 535 616 34,900  Level FlightAware ADS-B
Tue 06:03:59 AM 49.1910 -7.1230 120° Southeast 535 616 34,900  Level FlightAware ADS-B
Tue 06:04:33 AM 49.1500 -7.0110 119° Southeast 532 612 34,900  Level FlightAware ADS-B
Tue 06:05:11 AM 49.1080 -6.8940 119° Southeast 530 610 34,900  Level FlightAware ADS-B
Tue 06:05:43 AM 49.0660 -6.7810 120° Southeast 529 609 34,900  Level FlightAware ADS-B
Tue 06:06:19 AM 49.0240 -6.6680 120° Southeast 529 609 34,900  Level FlightAware ADS-B
Tue 06:06:21 AM 49.0075 -6.6424 120° Southeast 488 562 34,900  Level FlightAware UK
Tue 06:06:49 AM 48.9880 -6.5700 120° Southeast 530 610 34,900  Level FlightAware ADS-B
Tue 06:06:51 AM 48.9722 -6.5471 120° Southeast 488 562 34,900  Level FlightAware UK
Tue 06:07:21 AM 48.9355 -6.4500 120° Southeast 488 562 34,900  Level FlightAware UK
Tue 06:07:28 AM 48.9390 -6.4400 120° Southeast 530 610 34,900  Level FlightAware ADS-B
Tue 06:08:04 AM 48.8960 -6.3230 119° Southeast 531 611 34,900  Level FlightAware ADS-B
Tue 06:08:41 AM 48.8530 -6.2090 120° Southeast 532 612 34,900  Level FlightAware ADS-B
Tue 06:09:14 AM 48.8100 -6.0950 120° Southeast 533 613 34,900  Level FlightAware ADS-B
Tue 06:09:50 AM 48.7650 -5.9790 120° Southeast 533 613 34,900  Level FlightAware ADS-B
Tue 06:10:24 AM 48.7230 -5.8690 120° Southeast 532 612 34,900  Level FlightAware ADS-B
Tue 06:10:58 AM 48.6820 -5.7620 120° Southeast 531 611 34,900  Level FlightAware ADS-B
Tue 06:11:30 AM 48.6420 -5.6570 120° Southeast 531 611 34,900  Level FlightAware ADS-B
Tue 06:12:06 AM 48.5980 -5.5440 120° Southeast 527 606 34,900  Level FlightAware ADS-B
Tue 06:12:42 AM 48.5550 -5.4330 120° Southeast 526 605 34,900  Level FlightAware ADS-B
Tue 06:12:45 AM 48.5362 -5.4068 120° Southeast 494 568 34,900  Level FlightAware UK
Tue 06:13:15 AM 48.4988 -5.3115 120° Southeast 494 568 34,900  Level FlightAware UK
Tue 06:13:16 AM 48.5110 -5.3210 120° Southeast 524 603 34,900  Level FlightAware ADS-B
Tue 06:13:56 AM 48.4620 -5.1940 120° Southeast 524 603 34,900  Level FlightAware ADS-B
Tue 06:14:26 AM 48.4250 -5.1000 121° Southeast 524 603 34,900  Level FlightAware ADS-B
Tue 06:15:01 AM 48.3820 -4.9930 121° Southeast 522 601 34,900 81 Level FlightAware ADS-B
Tue 06:15:40 AM 48.3310 -4.8630 121° Southeast 526 605 35,000  Climbing FlightAware ADS-B
Tue 06:16:16 AM 48.2860 -4.7500 121° Southeast 527 606 34,900 -86 Descending FlightAware ADS-B
Tue 06:16:50 AM 48.2440 -4.6450 121° Southeast 527 606 34,900  Level FlightAware ADS-B
Tue 06:17:22 AM 48.2030 -4.5440 121° Southeast 526 605 34,900  Level FlightAware ADS-B
Tue 06:17:58 AM 48.1580 -4.4330 121° Southeast 525 604 34,900 86 Level FlightAware ADS-B
Tue 06:18:32 AM 48.1150 -4.3260 121° Southeast 526 605 35,000 83 Climbing FlightAware ADS-B
Tue 06:19:10 AM 48.0680 -4.2100 121° Southeast 527 606 35,000 -81 Level FlightAware ADS-B
Tue 06:19:46 AM 48.0210 -4.0960 122° Southeast 527 606 34,900  Descending FlightAware ADS-B
Tue 06:20:18 AM 47.9810 -3.9990 122° Southeast 526 605 35,000  Climbing FlightAware ADS-B
Tue 06:20:54 AM 47.9350 -3.8880 122° Southeast 528 608 34,900 -83 Descending FlightAware ADS-B
Tue 06:21:30 AM 47.8880 -3.7740 122° Southeast 527 606 34,900  Level FlightAware ADS-B
Tue 06:22:02 AM 47.8480 -3.6770 122° Southeast 526 605 34,900  Level FlightAware ADS-B
Tue 06:22:38 AM 47.8010 -3.5650 122° Southeast 527 606 34,900  Level FlightAware ADS-B
Tue 06:23:16 AM 47.7520 -3.4480 122° Southeast 527 606 34,900  Level FlightAware ADS-B
Tue 06:23:48 AM 47.7120 -3.3520 122° Southeast 527 606 34,900  Level FlightAware ADS-B
Tue 06:24:24 AM 47.6650 -3.2420 122° Southeast 526 605 34,900  Level FlightAware ADS-B
Tue 06:25:00 AM 47.6180 -3.1300 122° Southeast 525 604 34,900  Level FlightAware ADS-B
Tue 06:25:36 AM 47.5720 -3.0220 122° Southeast 524 603 34,900  Level FlightAware ADS-B
Tue 06:26:12 AM 47.5260 -2.9140 122° Southeast 524 603 34,900 81 Level FlightAware ADS-B
Tue 06:26:50 AM 47.4750 -2.7960 123° Southeast 524 603 35,000  Climbing FlightAware ADS-B
Tue 06:27:26 AM 47.4300 -2.6910 122° Southeast 525 604 34,900 -83 Descending FlightAware ADS-B
Tue 06:28:02 AM 47.3830 -2.5820 122° Southeast 526 605 34,900  Level FlightAware ADS-B
Tue 06:28:38 AM 47.3350 -2.4720 123° Southeast 527 606 34,900  Level FlightAware ADS-B
Tue 06:29:09 AM 47.2940 -2.3800 123° Southeast 527 606 34,900  Level FlightAware ADS-B
Tue 06:29:42 AM 47.2510 -2.2800 122° Southeast 527 606 34,900  Level FlightAware ADS-B
Tue 06:30:23 AM 47.1960 -2.1560 123° Southeast 527 606 34,900  Level FlightAware ADS-B
Tue 06:30:55 AM 47.1540 -2.0610 123° Southeast 527 606 34,900  Level FlightAware ADS-B
Tue 06:31:31 AM 47.1060 -1.9530 123° Southeast 527 606 34,900  Level FlightAware ADS-B
Tue 06:32:07 AM 47.0610 -1.8530 123° Southeast 527 606 34,900 83 Level FlightAware ADS-B
Tue 06:32:43 AM 47.0130 -1.7460 123° Southeast 528 608 35,000  Climbing FlightAware ADS-B
Tue 06:33:15 AM 46.9650 -1.6400 124° Southeast 529 609 34,900  Descending FlightAware ADS-B
Tue 06:33:51 AM 46.9160 -1.5320 124° Southeast 530 610 35,000  Climbing FlightAware ADS-B
Tue 06:34:24 AM 46.8730 -1.4370 123° Southeast 529 609 34,900  Descending FlightAware ADS-B
Tue 06:35:01 AM 46.8240 -1.3270 123° Southeast 529 609 35,000 82 Climbing FlightAware ADS-B
Tue 06:35:37 AM 46.7740 -1.2180 124° Southeast 529 609 35,000 -83 Level FlightAware ADS-B
Tue 06:36:13 AM 46.7270 -1.1140 123° Southeast 528 608 34,900 -88 Descending FlightAware ADS-B
Tue 06:36:45 AM 46.6840 -1.0190 123° Southeast 527 606 34,900 91 Level FlightAware ADS-B
Tue 06:37:19 AM 46.6370 -0.9170 124° Southeast 526 605 35,000  Climbing FlightAware ADS-B
Tue 06:37:53 AM 46.5970 -0.8290 123° Southeast 526 605 34,900 -87 Descending FlightAware ADS-B
Tue 06:38:28 AM 46.5520 -0.7330 124° Southeast 526 605 34,900 87 Level FlightAware ADS-B
Tue 06:39:02 AM 46.4980 -0.6180 124° Southeast 525 604 35,000 86 Climbing FlightAware ADS-B
Tue 06:39:38 AM 46.4520 -0.5210 125° Southeast 525 604 35,000 -79 Level FlightAware ADS-B
Tue 06:40:18 AM 46.4020 -0.4000 121° Southeast 514 592 34,900  Descending FlightAware ADS-B
Tue 06:40:52 AM 46.3890 -0.2810 99° East 490 564 35,000 80 Climbing FlightAware ADS-B
Tue 06:41:33 AM 46.3800 -0.1490 96° East 496 571 35,000 -79 Level FlightAware ADS-B
Tue 06:42:08 AM 46.3660 -0.0390 100° East 498 573 34,900  Descending FlightAware ADS-B
Tue 06:42:43 AM 46.3510 0.0720 101° East 496 571 35,000 92 Climbing FlightAware ADS-B
Tue 06:43:13 AM 46.3390 0.1710 100° East 493 567 35,000 -86 Level FlightAware ADS-B
Tue 06:43:53 AM 46.3240 0.3050 99° East 494 568 34,900  Descending FlightAware ADS-B
Tue 06:44:33 AM 46.3100 0.4360 99° East 493 567 35,000 80 Climbing FlightAware ADS-B
Tue 06:45:08 AM 46.2970 0.5500 99° East 493 567 35,000  Level FlightAware ADS-B
Tue 06:45:43 AM 46.2830 0.6650 100° East 492 566 35,000  Level FlightAware ADS-B
Tue 06:46:23 AM 46.2680 0.7940 100° East 492 566 35,000  Level FlightAware ADS-B
Tue 06:47:03 AM 46.2540 0.9140 100° East 491 565 35,000 -75 Level FlightAware ADS-B
Tue 06:47:43 AM 46.2370 1.0540 100° East 490 564 34,900  Descending FlightAware ADS-B
Tue 06:48:18 AM 46.2240 1.1640 100° East 491 565 35,000 92 Climbing FlightAware ADS-B
Tue 06:48:48 AM 46.2130 1.2580 100° East 491 565 35,000  Level FlightAware ADS-B
Tue 06:49:28 AM 46.1990 1.3670 100° East 491 565 35,000  Level FlightAware ADS-B
Tue 06:50:07 AM 46.1810 1.5150 100° East 495 570 35,000  Level FlightAware ADS-B
Tue 06:50:43 AM 46.1670 1.6330 100° East 497 572 35,000  Level FlightAware ADS-B
Tue 06:51:18 AM 46.1530 1.7430 100° East 498 573 35,000  Level FlightAware ADS-B
Tue 06:51:55 AM 46.1360 1.8760 100° East 498 573 35,000  Level FlightAware ADS-B
Tue 06:52:33 AM 46.1200 1.9960 101° East 500 575 35,000  Level FlightAware ADS-B
Tue 06:53:05 AM 46.1060 2.1020 101° East 500 575 35,000 -88 Level FlightAware ADS-B
Tue 06:53:41 AM 46.0900 2.2220 101° East 500 575 34,900  Descending FlightAware ADS-B
Tue 06:54:16 AM 46.0750 2.3330 101° East 499 574 35,000  Climbing FlightAware ADS-B
Tue 06:54:47 AM 46.0620 2.4340 100° East 499 574 34,900 -87 Descending FlightAware ADS-B
Tue 06:55:25 AM 46.0460 2.5570 101° East 498 573 34,900  Level FlightAware ADS-B
Tue 06:55:56 AM 46.0320 2.6570 101° East 498 573 34,900 83 Level FlightAware ADS-B
Tue 06:56:37 AM 46.0060 2.7900 106° East 505 581 35,000 87 Climbing FlightAware ADS-B
Tue 06:57:05 AM 45.9650 2.8670 127° Southeast 515 593 35,000  Level FlightAware ADS-B
Tue 06:57:42 AM 45.9020 2.9490 138° Southeast 514 592 35,000 -78 Level FlightAware ADS-B
Tue 06:58:22 AM 45.8400 3.0400 134° Southeast 509 586 34,900  Descending FlightAware ADS-B
Tue 06:58:52 AM 45.7900 3.1250 130° Southeast 508 585 35,000  Climbing FlightAware ADS-B
Tue 06:59:36 AM 45.7230 3.2400 130° Southeast 510 587 34,900 -73 Descending FlightAware ADS-B
Tue 07:00:14 AM 45.6670 3.3370 130° Southeast 510 587 34,900  Level FlightAware ADS-B
Tue 07:00:46 AM 45.6190 3.4200 130° Southeast 512 589 34,900  Level FlightAware ADS-B
Tue 07:01:24 AM 45.5610 3.5220 129° Southeast 512 589 34,900  Level FlightAware ADS-B
Tue 07:01:56 AM 45.5150 3.6030 129° Southeast 512 589 34,900  Level FlightAware ADS-B
Tue 07:02:33 AM 45.4610 3.6990 129° Southeast 512 589 34,900 86 Level FlightAware ADS-B
Tue 07:03:06 AM 45.4100 3.7890 129° Southeast 513 590 35,000  Climbing FlightAware ADS-B
Tue 07:03:44 AM 45.3540 3.8890 129° Southeast 513 590 34,900 -86 Descending FlightAware ADS-B
Tue 07:04:16 AM 45.3060 3.9760 128° Southeast 513 590 34,900  Level FlightAware ADS-B
Tue 07:04:48 AM 45.2590 4.0620 128° Southeast 514 592 34,900  Level FlightAware ADS-B
Tue 07:05:28 AM 45.2010 4.1660 128° Southeast 515 593 34,900 81 Level FlightAware ADS-B
Tue 07:06:02 AM 45.1520 4.2560 128° Southeast 517 595 35,000 86 Climbing FlightAware ADS-B
Tue 07:06:38 AM 45.0990 4.3540 127° Southeast 520 598 35,000  Level FlightAware ADS-B
Tue 07:07:14 AM 45.0460 4.4510 128° Southeast 521 600 35,000 -88 Level FlightAware ADS-B
Tue 07:07:46 AM 44.9990 4.5390 127° Southeast 522 601 34,900  Descending FlightAware ADS-B
Tue 07:08:20 AM 44.9490 4.6300 128° Southeast 522 601 35,000  Climbing FlightAware ADS-B
Tue 07:08:57 AM 44.8950 4.7290 128° Southeast 523 602 34,900 -82 Descending FlightAware ADS-B
Tue 07:09:33 AM 44.8420 4.8270 127° Southeast 524 603 34,900  Level FlightAware ADS-B
Tue 07:10:09 AM 44.7900 4.9240 127° Southeast 526 605 34,900 88 Level FlightAware ADS-B
Tue 07:10:41 AM 44.7480 5.0160 123° Southeast 525 604 35,000 85 Climbing FlightAware ADS-B
Tue 07:11:20 AM 44.7080 5.1010 123° Southeast 525 604 35,000 -80 Level FlightAware ADS-B
Tue 07:11:56 AM 44.6460 5.2230 126° Southeast 521 600 34,900 -82 Descending FlightAware ADS-B
Tue 07:12:33 AM 44.5920 5.3280 126° Southeast 519 597 34,900  Level FlightAware ADS-B
Tue 07:13:07 AM 44.5440 5.4210 126° Southeast 519 597 34,900  Level FlightAware ADS-B
Tue 07:13:39 AM 44.5000 5.5080 125° Southeast 518 596 34,900  Level FlightAware ADS-B
Tue 07:14:17 AM 44.4490 5.6080 126° Southeast 516 594 34,900 83 Level FlightAware ADS-B
Tue 07:14:51 AM 44.4010 5.7020 126° Southeast 516 594 35,000  Climbing FlightAware ADS-B
Tue 07:15:23 AM 44.3580 5.7850 126° Southeast 517 595 34,900  Descending FlightAware ADS-B
Tue 07:15:59 AM 44.3070 5.8830 126° Southeast 518 596 35,000  Climbing FlightAware ADS-B
Tue 07:16:37 AM 44.2510 5.9910 126° Southeast 519 597 34,900  Descending FlightAware ADS-B
Tue 07:17:13 AM 44.2000 6.0890 126° Southeast 520 598 35,000  Climbing FlightAware ADS-B
Tue 07:17:41 AM 44.1620 6.1610 126° Southeast 519 597 34,900 -88 Descending FlightAware ADS-B
Tue 07:18:21 AM 44.1050 6.2670 127° Southeast 518 596 34,900  Level FlightAware ADS-B
Tue 07:18:59 AM 44.0490 6.3730 126° Southeast 519 597 34,900  Level FlightAware ADS-B
Tue 07:19:43 AM 43.9850 6.4920 127° Southeast 517 595 34,900 77 Level FlightAware ADS-B
Tue 07:20:17 AM 43.9370 6.5820 127° Southeast 516 594 35,000  Climbing FlightAware ADS-B
Tue 07:20:55 AM 43.8850 6.6780 127° Southeast 515 593 34,900 -81 Descending FlightAware ADS-B
Tue 07:21:31 AM 43.8330 6.7760 126° Southeast 514 592 34,900 86 Level FlightAware ADS-B
Tue 07:22:05 AM 43.7840 6.8680 126° Southeast 516 594 35,000  Climbing FlightAware ADS-B
Tue 07:22:38 AM 43.7370 6.9510 128° Southeast 515 593 34,900 -83 Descending FlightAware ADS-B
Tue 07:23:17 AM 43.6780 7.0490 130° Southeast 512 589 34,900  Level FlightAware ADS-B
Tue 07:23:49 AM 43.6260 7.1310 131° Southeast 513 590 34,900 87 Level FlightAware ADS-B
Tue 07:24:26 AM 43.5730 7.2260 128° Southeast 514 592 35,000  Climbing FlightAware ADS-B
Tue 07:25:02 AM 43.5200 7.3190 128° Southeast 514 592 34,900 -85 Descending FlightAware ADS-B
Tue 07:25:37 AM 43.4690 7.4080 128° Southeast 513 590 34,900 90 Level FlightAware ADS-B
Tue 07:26:09 AM 43.4210 7.4920 128° Southeast 514 592 35,000 87 Climbing FlightAware ADS-B
Tue 07:26:46 AM 43.3660 7.5870 129° Southeast 514 592 35,000 -81 Level FlightAware ADS-B
Tue 07:27:23 AM 43.3120 7.6810 128° Southeast 515 593 34,900  Descending FlightAware ADS-B
Tue 07:27:54 AM 43.2690 7.7530 129° Southeast 515 593 35,000  Climbing FlightAware ADS-B
Tue 07:28:26 AM 43.2200 7.8360 129° Southeast 514 592 34,900 -86 Descending FlightAware ADS-B
Tue 07:29:04 AM 43.1640 7.9320 129° Southeast 514 592 34,900  Level FlightAware ADS-B
Tue 07:29:41 AM 43.1060 8.0330 128° Southeast 513 590 34,900  Level FlightAware ADS-B
Tue 07:30:18 AM 43.0520 8.1240 129° Southeast 513 590 34,900  Level FlightAware ADS-B
Tue 07:30:49 AM 43.0060 8.2040 128° Southeast 513 590 34,900 88 Level FlightAware ADS-B
Tue 07:31:26 AM 42.9530 8.2960 128° Southeast 511 588 35,000  Climbing FlightAware ADS-B
Tue 07:31:56 AM 42.9090 8.3700 129° Southeast 511 588 34,900 -85 Descending FlightAware ADS-B
Tue 07:32:37 AM 42.8490 8.4730 128° Southeast 511 588 34,900  Level FlightAware ADS-B
Tue 07:33:04 AM 42.8110 8.5500 124° Southeast 523 602 34,900 102 Level FlightAware ADS-B
Tue 07:33:36 AM 42.7830 8.6510 111° Southeast 530 610 35,000 90 Climbing FlightAware ADS-B
Tue 07:34:11 AM 42.7550 8.7570 110° East 530 610 35,000 -85 Level FlightAware ADS-B
Tue 07:34:47 AM 42.7250 8.8740 109° East 533 613 34,900 -81 Descending FlightAware ADS-B
Tue 07:35:25 AM 42.6970 8.9970 107° East 535 616 34,900 86 Level FlightAware ADS-B
Tue 07:35:57 AM 42.6750 9.1000 106° East 536 617 35,000 90 Climbing FlightAware ADS-B
Tue 07:36:32 AM 42.6500 9.2110 107° East 536 617 35,000  Level FlightAware ADS-B
Tue 07:37:11 AM 42.6220 9.3350 107° East 535 616 35,000 -85 Level FlightAware ADS-B
Tue 07:37:43 AM 42.5980 9.4390 107° East 534 615 34,900  Descending FlightAware ADS-B
Tue 07:38:18 AM 42.5700 9.5490 109° East 532 612 35,000 85 Climbing FlightAware ADS-B
Tue 07:38:54 AM 42.5390 9.6620 110° East 533 613 35,000  Level FlightAware ADS-B
Tue 07:39:30 AM 42.5090 9.7760 110° East 534 615 35,000  Level FlightAware ADS-B
Tue 07:40:02 AM 42.4810 9.8770 111° Southeast 534 615 35,000  Level FlightAware ADS-B
Tue 07:40:38 AM 42.4520 9.9850 110° East 535 616 35,000 -77 Level FlightAware ADS-B
Tue 07:41:20 AM 42.4160 10.1210 110° East 535 616 34,900 -77 Descending FlightAware ADS-B
Tue 07:41:56 AM 42.3860 10.2300 110° East 531 611 34,900 85 Level FlightAware ADS-B
Tue 07:42:31 AM 42.3590 10.3300 110° East 529 609 35,000  Climbing FlightAware ADS-B
Tue 07:43:01 AM 42.3300 10.4340 111° Southeast 529 609 34,900 -87 Descending FlightAware ADS-B
Tue 07:43:40 AM 42.2970 10.5530 111° Southeast 528 608 34,900 85 Level FlightAware ADS-B
Tue 07:44:12 AM 42.2700 10.6520 110° East 527 606 35,000  Climbing FlightAware ADS-B
Tue 07:44:52 AM 42.2360 10.7750 110° East 526 605 34,900  Descending FlightAware ADS-B
Tue 07:45:28 AM 42.2040 10.8890 111° Southeast 525 604 35,000  Climbing FlightAware ADS-B
Tue 07:45:59 AM 42.1780 10.9810 111° Southeast 524 603 34,900  Descending FlightAware ADS-B
Tue 07:46:35 AM 42.1470 11.0910 111° Southeast 523 602 35,000  Climbing FlightAware ADS-B
Tue 07:47:09 AM 42.1050 11.1860 121° Southeast 506 582 34,900 -86 Descending FlightAware ADS-B
Tue 07:47:45 AM 42.0530 11.2740 128° Southeast 504 580 34,900  Level FlightAware ADS-B
Tue 07:48:21 AM 42.0000 11.3600 130° Southeast 500 575 34,900 83 Level FlightAware ADS-B
Tue 07:48:57 AM 41.9430 11.4460 132° Southeast 497 572 35,000  Climbing FlightAware ADS-B
Tue 07:49:29 AM 41.8950 11.5190 131° Southeast 495 570 34,900 -88 Descending FlightAware ADS-B
Tue 07:50:05 AM 41.8420 11.5990 132° Southeast 492 566 34,900  Level FlightAware ADS-B
Tue 07:50:39 AM 41.7900 11.6780 131° Southeast 490 564 34,900 83 Level FlightAware ADS-B
Tue 07:51:17 AM 41.7330 11.7650 131° Southeast 488 562 35,000  Climbing FlightAware ADS-B
Tue 07:51:53 AM 41.6780 11.8470 132° Southeast 489 563 34,900 -88 Descending FlightAware ADS-B
Tue 07:52:25 AM 41.6390 11.9250 124° Southeast 501 577 34,900  Level FlightAware ADS-B
Tue 07:53:00 AM 41.5990 12.0200 119° Southeast 501 577 34,900 83 Level FlightAware ADS-B
Tue 07:53:37 AM 41.5550 12.1230 120° Southeast 503 579 35,000  Climbing FlightAware ADS-B
Tue 07:54:09 AM 41.5180 12.2050 121° Southeast 506 582 34,900  Descending FlightAware ADS-B
Tue 07:54:45 AM 41.4770 12.3050 119° Southeast 510 587 35,000 86 Climbing FlightAware ADS-B
Tue 07:55:19 AM 41.4380 12.3990 119° Southeast 511 588 35,000 -83 Level FlightAware ADS-B
Tue 07:55:57 AM 41.3950 12.5020 119° Southeast 513 590 34,900 -77 Descending FlightAware ADS-B
Tue 07:56:37 AM 41.3480 12.6140 119° Southeast 513 590 34,900 81 Level FlightAware ADS-B
Tue 07:57:11 AM 41.3050 12.7070 122° Southeast 512 589 35,000 86 Climbing FlightAware ADS-B
Tue 07:57:47 AM 41.2620 12.7980 122° Southeast 513 590 35,000 -83 Level FlightAware ADS-B
Tue 07:58:23 AM 41.2130 12.8970 123° Southeast 513 590 34,900  Descending FlightAware ADS-B
Tue 07:59:14 AM 41.1460 13.0310 124° Southeast 514 592 35,000 558 Climbing FlightAware ADS-B
Tue 07:59:49 AM 41.1000 13.1220 124° Southeast 514 592 35,700 1,279 Climbing FlightAware ADS-B
Tue 08:00:15 AM 41.0660 13.1900 124° Southeast 513 590 36,300 947 Climbing FlightAware ADS-B
Tue 08:01:05 AM 41.0000 13.3210 124° Southeast 509 586 36,900 419 Climbing FlightAware ADS-B
Tue 08:01:41 AM 40.9550 13.4120 123° Southeast 508 585 36,900  Level FlightAware ADS-B
Tue 08:02:13 AM 40.9140 13.4950 123° Southeast 509 586 36,900  Level FlightAware ADS-B
Tue 08:02:45 AM 40.8720 13.5770 124° Southeast 510 587 36,900  Level FlightAware ADS-B
Tue 08:03:25 AM 40.8180 13.6850 123° Southeast 512 589 36,900  Level FlightAware ADS-B
Tue 08:03:57 AM 40.7760 13.7690 123° Southeast 512 589 36,900  Level FlightAware ADS-B
Tue 08:04:32 AM 40.7310 13.8580 124° Southeast 514 592 36,900  Level FlightAware ADS-B
Tue 08:05:12 AM 40.6790 13.9600 124° Southeast 514 592 36,900  Level FlightAware ADS-B
Tue 08:05:44 AM 40.6360 14.0450 124° Southeast 514 592 36,900  Level FlightAware ADS-B
Tue 08:06:20 AM 40.5890 14.1370 124° Southeast 514 592 36,900  Level FlightAware ADS-B
Tue 08:06:54 AM 40.5430 14.2280 124° Southeast 513 590 36,900  Level FlightAware ADS-B
Tue 08:07:30 AM 40.4950 14.3210 124° Southeast 512 589 36,900 82 Level FlightAware ADS-B
Tue 08:08:07 AM 40.4490 14.4110 124° Southeast 509 586 37,000  Climbing FlightAware ADS-B
Tue 08:08:38 AM 40.4050 14.4940 125° Southeast 509 586 36,900 -90 Descending FlightAware ADS-B
Tue 08:09:14 AM 40.3580 14.5850 124° Southeast 507 583 36,900  Level FlightAware ADS-B
Tue 08:09:50 AM 40.3100 14.6770 124° Southeast 505 581 36,900  Level FlightAware ADS-B
Tue 08:10:26 AM 40.2630 14.7680 124° Southeast 506 582 36,900  Level FlightAware ADS-B
Tue 08:10:58 AM 40.2200 14.8490 125° Southeast 506 582 36,900  Level FlightAware ADS-B
Tue 08:11:44 AM 40.1590 14.9660 124° Southeast 505 581 36,900  Level FlightAware ADS-B
Tue 08:12:18 AM 40.1160 15.0490 124° Southeast 504 580 36,900  Level FlightAware ADS-B
Tue 08:12:54 AM 40.0670 15.1420 125° Southeast 503 579 36,900  Level FlightAware ADS-B
Tue 08:13:25 AM 40.0270 15.2170 125° Southeast 504 580 36,900  Level FlightAware ADS-B
Tue 08:14:02 AM 39.9770 15.3110 125° Southeast 503 579 36,900  Level FlightAware ADS-B
Tue 08:14:38 AM 39.9290 15.4020 125° Southeast 502 578 36,900  Level FlightAware ADS-B
Tue 08:15:14 AM 39.8820 15.4900 125° Southeast 501 577 36,900  Level FlightAware ADS-B
Tue 08:15:50 AM 39.8350 15.5780 125° Southeast 502 578 36,900  Level FlightAware ADS-B
Tue 08:16:26 AM 39.7870 15.6700 124° Southeast 503 579 36,900  Level FlightAware ADS-B
Tue 08:16:58 AM 39.7440 15.7490 125° Southeast 505 581 36,900  Level FlightAware ADS-B
Tue 08:17:41 AM 39.6860 15.8570 125° Southeast 507 583 36,900 76 Level FlightAware ADS-B
Tue 08:18:17 AM 39.6390 15.9440 125° Southeast 508 585 37,000  Climbing FlightAware ADS-B
Tue 08:18:51 AM 39.5930 16.0310 124° Southeast 512 589 36,900 -86 Descending FlightAware ADS-B
Tue 08:19:27 AM 39.5430 16.1220 125° Southeast 513 590 36,900  Level FlightAware ADS-B
Tue 08:20:01 AM 39.4970 16.2070 125° Southeast 512 589 36,900 88 Level FlightAware ADS-B
Tue 08:20:35 AM 39.4510 16.2930 125° Southeast 515 593 37,000  Climbing FlightAware ADS-B
Tue 08:21:13 AM 39.3990 16.3890 125° Southeast 519 597 36,900  Descending FlightAware ADS-B
Tue 08:21:47 AM 39.3420 16.5090 122° Southeast 524 603 37,000 88 Climbing FlightAware ADS-B
Tue 08:22:21 AM 39.2960 16.5940 125° Southeast 525 604 37,000  Level FlightAware ADS-B
Tue 08:22:57 AM 39.2470 16.6840 125° Southeast 523 602 37,000  Level FlightAware ADS-B
Tue 08:23:33 AM 39.1940 16.7780 126° Southeast 517 595 37,000  Level FlightAware ADS-B
Tue 08:24:05 AM 39.1490 16.8590 126° Southeast 516 594 37,000  Level FlightAware ADS-B
Tue 08:24:42 AM 39.0990 16.9490 126° Southeast 515 593 37,000  Level FlightAware ADS-B
Tue 08:25:17 AM 39.0510 17.0360 125° Southeast 515 593 37,000  Level FlightAware ADS-B
Tue 08:25:53 AM 39.0060 17.1310 121° Southeast 518 596 37,000  Level FlightAware ADS-B
Tue 08:26:27 AM 38.9780 17.2320 110° East 518 596 37,000  Level FlightAware ADS-B
Tue 08:27:03 AM 38.9530 17.3360 107° East 517 595 37,000  Level FlightAware ADS-B
Tue 08:27:35 AM 38.9310 17.4290 107° East 514 592 37,000  Level FlightAware ADS-B
Tue 08:28:12 AM 38.9060 17.5340 107° East 511 588 37,000  Level FlightAware ADS-B
Tue 08:28:49 AM 38.8790 17.6460 107° East 510 587 37,000  Level FlightAware ADS-B
Tue 08:29:21 AM 38.8570 17.7350 108° East 509 586 37,000  Level FlightAware ADS-B
Tue 08:29:57 AM 38.8310 17.8410 107° East 509 586 37,000  Level FlightAware ADS-B
Tue 08:30:33 AM 38.8060 17.9430 107° East 508 585 37,000  Level FlightAware ADS-B
Tue 08:31:09 AM 38.7810 18.0460 107° East 509 586 37,000  Level FlightAware ADS-B
Tue 08:31:39 AM 38.7590 18.1350 108° East 510 587 37,000  Level FlightAware ADS-B
Tue 08:32:17 AM 38.7320 18.2440 108° East 510 587 37,000  Level FlightAware ADS-B
Tue 08:32:49 AM 38.7090 18.3360 108° East 508 585 37,000  Level FlightAware ADS-B
Tue 08:33:27 AM 38.6820 18.4450 108° East 505 581 37,000  Level FlightAware ADS-B
Tue 08:34:03 AM 38.6560 18.5480 108° East 504 580 37,000  Level FlightAware ADS-B
Tue 08:34:39 AM 38.6310 18.6470 108° East 501 577 37,000  Level FlightAware ADS-B
Tue 08:35:11 AM 38.6080 18.7370 108° East 499 574 37,000  Level FlightAware ADS-B
Tue 08:35:47 AM 38.5790 18.8380 110° East 497 572 37,000  Level FlightAware ADS-B
Tue 08:36:23 AM 38.5500 18.9340 111° Southeast 500 575 37,000  Level FlightAware ADS-B
Tue 08:37:18 AM 38.5060 19.0860 110° East 500 575 37,000  Level FlightAware ADS-B
Tue 08:37:48 AM 38.4820 19.1680 110° East 500 575 37,000  Level FlightAware ADS-B
Tue 08:38:28 AM 38.4490 19.2810 110° East 501 577 37,000  Level FlightAware ADS-B
Tue 08:38:58 AM 38.4250 19.3610 111° Southeast 504 580 37,000  Level FlightAware ADS-B
Tue 08:39:44 AM 38.3880 19.4880 110° East 505 581 37,000  Level FlightAware ADS-B
Tue 08:40:18 AM 38.3590 19.5870 110° East 507 583 37,000  Level FlightAware ADS-B
Tue 08:40:53 AM 38.3300 19.6830 111° Southeast 508 585 37,000  Level FlightAware ADS-B
Tue 08:41:28 AM 38.3000 19.7830 111° Southeast 508 585 37,000  Level FlightAware ADS-B
Tue 08:42:03 AM 38.2720 19.8780 111° Southeast 509 586 37,000  Level FlightAware ADS-B
Tue 08:42:38 AM 38.2420 19.9780 111° Southeast 508 585 37,000  Level FlightAware ADS-B
Tue 08:43:13 AM 38.2140 20.0700 111° Southeast 508 585 37,000  Level FlightAware ADS-B
Tue 08:43:53 AM 38.1790 20.1860 111° Southeast 508 585 37,000  Level FlightAware ADS-B
Tue 08:44:33 AM 38.1450 20.2980 111° Southeast 509 586 37,000  Level FlightAware ADS-B
Tue 08:45:03 AM 38.1190 20.3830 111° Southeast 509 586 37,000  Level FlightAware ADS-B
Tue 08:45:38 AM 38.0900 20.4780 111° Southeast 510 587 37,000  Level FlightAware ADS-B
Tue 08:46:13 AM 38.0590 20.5770 112° Southeast 510 587 37,000  Level FlightAware ADS-B
Tue 08:46:53 AM 38.0270 20.6820 111° Southeast 511 588 37,000  Level FlightAware ADS-B
Tue 08:47:23 AM 37.9990 20.7720 112° Southeast 511 588 37,000  Level FlightAware ADS-B
Tue 08:48:03 AM 37.9640 20.8850 111° Southeast 512 589 37,000  Level FlightAware ADS-B
Tue 08:48:38 AM 37.9330 20.9830 112° Southeast 513 590 37,000  Level FlightAware ADS-B
Tue 08:49:08 AM 37.9070 21.0670 111° Southeast 514 592 37,000  Level FlightAware ADS-B
Tue 08:49:43 AM 37.8770 21.1620 112° Southeast 516 594 37,000  Level FlightAware ADS-B
Tue 08:50:18 AM 37.8450 21.2610 112° Southeast 516 594 37,000  Level FlightAware ADS-B
Tue 08:50:53 AM 37.8140 21.3600 112° Southeast 517 595 37,000  Level FlightAware ADS-B
Tue 08:51:28 AM 37.7820 21.4590 112° Southeast 517 595 37,000  Level FlightAware ADS-B
Tue 08:52:03 AM 37.7510 21.5570 112° Southeast 518 596 37,000  Level FlightAware ADS-B
Tue 08:52:38 AM 37.7190 21.6550 112° Southeast 519 597 37,000  Level FlightAware ADS-B
Tue 08:53:18 AM 37.6830 21.7670 112° Southeast 520 598 37,000  Level FlightAware ADS-B
Tue 08:53:53 AM 37.6520 21.8650 112° Southeast 521 600 37,000  Level FlightAware ADS-B
Tue 08:54:33 AM 37.6180 21.9690 112° Southeast 522 601 37,000  Level FlightAware ADS-B
Tue 08:55:08 AM 37.5830 22.0760 112° Southeast 524 603 37,000  Level FlightAware ADS-B
Tue 08:55:43 AM 37.5520 22.1710 112° Southeast 524 603 37,000  Level FlightAware ADS-B
Tue 08:56:23 AM 37.5140 22.2900 112° Southeast 525 604 37,000  Level FlightAware ADS-B
Tue 08:57:09 AM 37.4760 22.4050 113° Southeast 524 603 37,000  Level FlightAware ADS-B
Tue 08:57:43 AM 37.4500 22.4870 112° Southeast 524 603 37,000  Level FlightAware ADS-B
Tue 08:58:12 AM 37.4120 22.5980 113° Southeast 525 604 37,000  Level FlightAware ADS-B
Tue 08:58:51 AM 37.3790 22.6990 112° Southeast 519 597 37,000  Level FlightAware ADS-B
Tue 08:59:26 AM 37.3440 22.8020 113° Southeast 517 595 37,000  Level FlightAware ADS-B
Tue 09:00:01 AM 37.3120 22.8960 113° Southeast 517 595 37,000  Level FlightAware ADS-B
Tue 09:00:38 AM 37.2750 23.0080 113° Southeast 521 600 37,000  Level FlightAware ADS-B
Tue 09:01:14 AM 37.2410 23.1070 113° Southeast 521 600 37,000  Level FlightAware ADS-B
Tue 09:01:50 AM 37.2100 23.1970 113° Southeast 521 600 37,000  Level FlightAware ADS-B
Tue 09:02:22 AM 37.1770 23.2940 113° Southeast 521 600 37,000  Level FlightAware ADS-B
Tue 09:02:58 AM 37.1410 23.3940 114° Southeast 520 598 37,000  Level FlightAware ADS-B
Tue 09:03:34 AM 37.1070 23.4930 113° Southeast 522 601 37,000  Level FlightAware ADS-B
Tue 09:04:07 AM 37.0740 23.5830 115° Southeast 522 601 37,000  Level FlightAware ADS-B
Tue 09:04:42 AM 37.0400 23.6810 113° Southeast 522 601 37,000  Level FlightAware ADS-B
Tue 09:05:14 AM 37.0080 23.7690 114° Southeast 524 603 37,000  Level FlightAware ADS-B
Tue 09:05:52 AM 36.9710 23.8770 113° Southeast 525 604 37,000  Level FlightAware ADS-B
Tue 09:06:28 AM 36.9360 23.9760 114° Southeast 526 605 37,000  Level FlightAware ADS-B
Tue 09:07:08 AM 36.8970 24.0890 113° Southeast 527 606 37,000  Level FlightAware ADS-B
Tue 09:07:44 AM 36.8620 24.1890 114° Southeast 528 608 37,000  Level FlightAware ADS-B
Tue 09:08:18 AM 36.8290 24.2800 114° Southeast 530 610 37,000  Level FlightAware ADS-B
Tue 09:08:56 AM 36.7910 24.3890 113° Southeast 532 612 37,000  Level FlightAware ADS-B
Tue 09:09:29 AM 36.7580 24.4800 114° Southeast 532 612 37,000  Level FlightAware ADS-B
Tue 09:10:04 AM 36.7210 24.5790 115° Southeast 534 615 37,000  Level FlightAware ADS-B
Tue 09:10:40 AM 36.6840 24.6810 114° Southeast 534 615 37,000  Level FlightAware ADS-B
Tue 09:10:56 AM 36.6680 24.7250 114° Southeast 534 615 37,000  Level FlightAware ADS-B
Tue 09:11:46 AM 36.6170 24.8670 114° Southeast 535 616 37,000  Level FlightAware ADS-B
Tue 09:12:20 AM 36.5820 24.9620 115° Southeast 536 617 37,000  Level FlightAware ADS-B
Tue 09:12:57 AM 36.5450 25.0630 114° Southeast 537 618 37,000  Level FlightAware ADS-B
Tue 09:13:32 AM 36.5090 25.1630 114° Southeast 537 618 37,000  Level FlightAware ADS-B
Tue 09:14:04 AM 36.4760 25.2540 114° Southeast 537 618 37,000  Level FlightAware ADS-B
Tue 09:14:40 AM 36.4380 25.3550 115° Southeast 536 617 37,000  Level FlightAware ADS-B
Tue 09:15:16 AM 36.4020 25.4540 114° Southeast 536 617 37,000  Level FlightAware ADS-B
Tue 09:15:53 AM 36.3640 25.5550 115° Southeast 536 617 37,000  Level FlightAware ADS-B
Tue 09:16:26 AM 36.3290 25.6510 114° Southeast 537 618 37,000  Level FlightAware ADS-B
Tue 09:17:02 AM 36.2910 25.7520 115° Southeast 538 619 37,000  Level FlightAware ADS-B
Tue 09:17:38 AM 36.2530 25.8510 115° Southeast 538 619 37,000  Level FlightAware ADS-B
Tue 09:18:10 AM 36.2190 25.9410 115° Southeast 538 619 37,000  Level FlightAware ADS-B
Tue 09:18:46 AM 36.1810 26.0420 115° Southeast 537 618 37,000  Level FlightAware ADS-B
Tue 09:19:18 AM 36.1470 26.1320 115° Southeast 535 616 37,000  Level FlightAware ADS-B
Tue 09:19:56 AM 36.1080 26.2350 115° Southeast 534 615 37,000  Level FlightAware ADS-B
Tue 09:20:32 AM 36.0690 26.3360 116° Southeast 533 613 37,000  Level FlightAware ADS-B
Tue 09:21:06 AM 36.0340 26.4280 115° Southeast 533 613 37,000  Level FlightAware ADS-B
Tue 09:21:44 AM 35.9930 26.5340 116° Southeast 532 612 37,000  Level FlightAware ADS-B
Tue 09:22:16 AM 35.9600 26.6210 115° Southeast 530 610 37,000  Level FlightAware ADS-B
Tue 09:22:52 AM 35.9220 26.7190 116° Southeast 530 610 37,000  Level FlightAware ADS-B
Tue 09:23:24 AM 35.8890 26.8040 116° Southeast 530 610 37,000  Level FlightAware ADS-B
Tue 09:24:02 AM 35.8550 26.8920 115° Southeast 530 610 37,000  Level FlightAware ADS-B
Tue 09:24:38 AM 35.8240 26.9760 114° Southeast 530 610 37,000  Level FlightAware ADS-B
Tue 09:25:14 AM 35.7920 27.0600 115° Southeast 530 610 37,000  Level FlightAware ADS-B
Tue 09:25:50 AM 35.7600 27.1440 115° Southeast 530 610 37,000  Level FlightAware ADS-B
Tue 09:26:26 AM 35.7280 27.2270 115° Southeast 530 610 37,000  Level FlightAware ADS-B
Tue 09:27:02 AM 35.6970 27.3110 114° Southeast 530 610 37,000  Level FlightAware ADS-B
Tue 09:27:39 AM 35.6640 27.3970 115° Southeast 530 610 37,000  Level FlightAware ADS-B
Tue 09:28:15 AM 35.6320 27.4810 115° Southeast 530 610 37,000  Level FlightAware ADS-B
Tue 09:28:51 AM 35.6010 27.5650 114° Southeast 530 610 37,000  Level FlightAware ADS-B
Tue 09:29:27 AM 35.5690 27.6480 115° Southeast 530 610 37,000  Level FlightAware ADS-B
Tue 09:30:03 AM 35.5370 27.7320 115° Southeast 530 610 37,000  Level FlightAware ADS-B
Tue 09:30:39 AM 35.5050 27.8150 115° Southeast 530 610 37,000  Level FlightAware ADS-B
Tue 09:31:15 AM 35.4740 27.8990 114° Southeast 530 610 37,000  Level FlightAware ADS-B
Tue 09:31:54 AM 35.3400 28.1940 119° Southeast 534 615 37,000  Level FlightAware ADS-B
Tue 09:32:35 AM 35.2940 28.3050 117° Southeast 534 615 37,000  Level FlightAware ADS-B
Tue 09:33:11 AM 35.2560 28.4010 116° Southeast 535 616 37,000  Level FlightAware ADS-B
Tue 09:33:43 AM 35.2200 28.4890 117° Southeast 535 616 37,000  Level FlightAware ADS-B
Tue 09:34:21 AM 35.1780 28.5940 116° Southeast 535 616 37,000  Level FlightAware ADS-B
Tue 09:34:54 AM 35.1460 28.6720 117° Southeast 535 616 37,000  Level FlightAware ADS-B
Tue 09:36:45 AM 35.0230 28.9720 117° Southeast 538 619 37,000  Level FlightAware ADS-B
Tue 09:37:20 AM 34.9850 29.0620 117° Southeast 538 619 37,000  Level FlightAware ADS-B
Tue 09:37:57 AM 34.9510 29.1480 116° Southeast 538 619 37,000  Level FlightAware ADS-B
Tue 09:38:33 AM 34.9180 29.2320 116° Southeast 538 619 37,000  Level FlightAware ADS-B
Tue 09:39:05 AM 34.8640 29.3550 118° Southeast 538 619 37,000  Level FlightAware ADS-B
Tue 09:39:53 AM 34.8140 29.4770 116° Southeast 538 619 37,000  Level FlightAware ADS-B
Tue 09:40:31 AM 34.7710 29.5800 117° Southeast 538 619 37,000  Level FlightAware ADS-B
Tue 09:41:06 AM 34.7300 29.6770 117° Southeast 538 619 37,000  Level FlightAware ADS-B
Tue 09:41:37 AM 34.6910 29.7680 118° Southeast 538 619 37,000  Level FlightAware ADS-B
Tue 09:42:12 AM 34.6530 29.8570 117° Southeast 535 616 37,000  Level FlightAware ADS-B
Tue 09:42:50 AM 34.6180 29.9450 116° Southeast 535 616 37,000  Level FlightAware ADS-B
Tue 09:43:28 AM 34.5830 30.0320 116° Southeast 535 616 37,000 -217 Level FlightAware ADS-B
Tue 09:44:03 AM 34.5200 30.1510 123° Southeast 36,900 -400 Descending FlightAware ADS-B
Tue 09:44:13 AM 34.5060 30.1800 120° Southeast 528 608 36,700 -727 Descending FlightAware ADS-B
Tue 09:45:09 AM 34.4410 30.3190 120° Southeast 528 608 36,100 -1,121 Descending FlightAware ADS-B
Tue 09:45:44 AM 34.3920 30.4160 121° Southeast 528 608 35,000 -1,000 Descending FlightAware ADS-B
Tue 09:46:15 AM 34.3540 30.4950 120° Southeast 530 610 35,000  Level FlightAware ADS-B
Tue 09:46:49 AM 34.3120 30.5820 120° Southeast 530 610 35,000  Level FlightAware ADS-B
Tue 09:47:20 AM 34.2740 30.6580 121° Southeast 530 610 35,000  Level FlightAware ADS-B
Tue 09:47:55 AM 34.2280 30.7530 120° Southeast 530 610 35,000  Level FlightAware ADS-B
Tue 09:48:31 AM 34.1840 30.8430 121° Southeast 533 613 35,000  Level FlightAware ADS-B
Tue 09:49:07 AM 34.1390 30.9350 121° Southeast 529 609 35,000  Level FlightAware ADS-B
Tue 09:49:41 AM 34.1000 31.0160 120° Southeast 529 609 35,000  Level FlightAware ADS-B
Tue 09:50:16 AM 34.0520 31.1130 121° Southeast 526 605 35,000  Level FlightAware ADS-B
Tue 09:50:52 AM 34.0070 31.2040 121° Southeast 524 603 35,000  Level FlightAware ADS-B
Tue 09:51:22 AM 33.9690 31.2820 120° Southeast 524 603 35,000  Level FlightAware ADS-B
Tue 09:52:03 AM 33.9190 31.3830 121° Southeast 521 600 35,000  Level FlightAware ADS-B
Tue 09:52:39 AM 33.8750 31.4730 120° Southeast 520 598 35,000  Level FlightAware ADS-B
Tue 09:53:13 AM 33.8310 31.5610 121° Southeast 520 598 35,000  Level FlightAware ADS-B
Tue 09:53:48 AM 33.7880 31.6480 121° Southeast 520 598 35,000  Level FlightAware ADS-B
Tue 09:54:29 AM 33.7400 31.7450 121° Southeast 520 598 35,000  Level FlightAware ADS-B
Tue 09:55:04 AM 33.6940 31.8370 121° Southeast 519 597 35,000  Level FlightAware ADS-B
Tue 09:55:40 AM 33.6510 31.9230 121° Southeast 518 596 35,000  Level FlightAware ADS-B
Tue 09:56:14 AM 33.6070 32.0110 121° Southeast 518 596 35,000  Level FlightAware ADS-B
Tue 09:56:49 AM 33.5640 32.0980 121° Southeast 516 594 35,000  Level FlightAware ADS-B
Tue 09:57:30 AM 33.5120 32.1990 122° Southeast 516 594 35,000  Level FlightAware ADS-B
Tue 09:58:11 AM 33.4630 32.2970 121° Southeast 515 593 35,000  Level FlightAware ADS-B
Tue 09:58:58 AM 33.4020 32.4180 121° Southeast 519 597 35,000  Level FlightAware ADS-B
Tue 09:59:24 AM 33.3700 32.4820 121° Southeast 519 597 35,000  Level FlightAware ADS-B
Tue 10:00:05 AM 33.3200 32.5790 122° Southeast 518 596 35,000  Level FlightAware ADS-B
Tue 10:00:44 AM 33.2730 32.6720 121° Southeast 517 595 35,000 -468 Level FlightAware ADS-B
Tue 10:01:22 AM 33.2260 32.7640 121° Southeast 510 587 34,400 -1,820 Descending FlightAware ADS-B
Tue 10:02:13 AM 33.1610 32.8900 122° Southeast 502 578 32,300 -1,419 Descending FlightAware ADS-B
Tue 10:02:55 AM 33.1210 32.9730 120° Southeast 501 577 32,200 -77 Descending FlightAware ADS-B
Tue 10:03:31 AM 33.0860 33.0460 120° Southeast 501 577 32,200 -3,582 Level FlightAware ADS-B
Tue 10:04:02 AM 33.0320 33.1460 123° Southeast 480 552 28,200 -4,296 Descending FlightAware ADS-B
Tue 10:04:52 AM 32.9740 33.2600 121° Southeast 467 537 26,400 -1,469 Descending FlightAware ADS-B
Tue 10:05:40 AM 32.9300 33.3500 120° Southeast 459 528 25,800 -2,000 Descending FlightAware ADS-B
Tue 10:06:16 AM 32.8840 33.4390 122° Southeast 432 497 23,600 -2,912 Descending FlightAware ADS-B
Tue 10:06:48 AM 32.8510 33.5030 122° Southeast 420 483 22,500 -1,917 Descending FlightAware ADS-B
Tue 10:07:28 AM 32.8120 33.5800 121° Southeast 406 467 21,300 -1,750 Descending FlightAware ADS-B
Tue 10:08:00 AM 32.7810 33.6420 121° Southeast 395 455 20,400 -1,800 Descending FlightAware ADS-B
Tue 10:08:38 AM 32.7450 33.7110 122° Southeast 383 441 19,200 -1,750 Descending FlightAware ADS-B
Tue 10:09:12 AM 32.7160 33.7680 121° Southeast 372 428 18,300 -1,615 Descending FlightAware ADS-B
Tue 10:09:56 AM 32.6760 33.8470 121° Southeast 360 414 17,100 -1,658 Descending FlightAware ADS-B
Tue 10:10:28 AM 32.6490 33.9000 121° Southeast 351 404 16,200 -1,588 Descending FlightAware ADS-B
Tue 10:11:04 AM 32.6180 33.9590 122° Southeast 355 409 15,300 -1,594 Descending FlightAware ADS-B
Tue 10:11:32 AM 32.5950 34.0040 121° Southeast 357 411 14,500 -1,624 Descending FlightAware ADS-B
Tue 10:12:29 AM 32.5470 34.0990 121° Southeast 341 392 13,000 -1,568 Descending FlightAware ADS-B
Tue 10:13:00 AM 32.5200 34.1500 122° Southeast 334 384 12,200 -1,525 Descending FlightAware ADS-B
Tue 10:13:28 AM 32.4980 34.1920 122° Southeast 328 377 11,500 -1,448 Descending FlightAware ADS-B
Tue 10:13:58 AM 32.4690 34.2330 130° Southeast 323 372 10,800 -701 Descending FlightAware ADS-B
Tue 10:14:45 AM 32.4280 34.2820 135° Southeast 319 367 10,600 -578 Descending FlightAware ADS-B
Tue 10:15:21 AM 32.3880 34.3300 135° Southeast 277 319 10,000 -474 Descending FlightAware ADS-B
Tue 10:16:01 AM 32.3580 34.3670 134° Southeast 277 319 10,000  Level FlightAware ADS-B
Tue 10:16:39 AM 32.3290 34.4020 134° Southeast 277 319 10,000  Level FlightAware ADS-B
Tue 10:17:15 AM 32.3020 34.4360 133° Southeast 277 319 10,000  Level FlightAware ADS-B
Tue 10:19:00 AM 32.1208 34.6375 125° Southeast  Level FlightAware Approximate
Tue 10:20:00 AM 32.0504 34.7825 115° Southeast  Level FlightAware Approximate
Tue 10:21:00 AM 32.0000 34.8667 125° Southeast  Level FlightAware Approximate
Tue 10:22:00 AM 32.0095 34.8769 125° Southeast  Level Estimated
Tue 10:23:00 AM 32.0095 34.8769 125° Southeast  Level Estimated
Tue 10:24:00 AM 32.0095 34.8769 125° Southeast  Level Estimated
Tue 10:25:00 AM 32.0095 34.8769 125° Southeast  Level Estimated
Tue 10:26:00 AM 32.0095 34.8769 125° Southeast  Level Estimated
Tue 10:27:00 AM 32.0095 34.8769 125° Southeast  Level Estimated
Tue 10:28:00 AM 32.0095 34.8769 125° Southeast  Level Estimated
Tue 10:29:00 AM 32.0095 34.8769 125° Southeast  Level Estimated

Login

Don't have an account? Register now (free) for customized features, flight alerts, and more!